<?xml version="1.0" encoding="UTF-8" standalone="no" ?>
<gpx xmlns="http://www.topografix.com/GPX/1/1" xmlns:xsi="http://www.w3.org/2001/XMLSchema-instance" xsi:schemaLocation="http://www.topografix.com/GPX/1/1 http://www.topografix.com/GPX/1/1/gpx.xsd" version="1.1" creator="VisuGPX - https://www.visugpx.com">
  <metadata>
    <name>VTT - Venelles Roques Hautes</name>
    <desc><![CDATA[Parcours sans difficulté]]></desc>
  </metadata>
  <trk>
    <name><![CDATA[VTT - Venelles Roques Hautes]]></name>
    <trkseg>
      <trkpt lat="43.59907" lon="5.48855">
        <ele>365.39999389648</ele>
        <time>2013-01-17T13:00:58.000Z</time>
      </trkpt>
      <trkpt lat="43.59953" lon="5.48856">
        <ele>366.39999389648</ele>
        <time>2013-01-17T13:01:29.000Z</time>
      </trkpt>
      <trkpt lat="43.59997" lon="5.48864">
        <ele>367.60000610352</ele>
        <time>2013-01-17T13:01:44.000Z</time>
      </trkpt>
      <trkpt lat="43.60035" lon="5.48831">
        <ele>366.39999389648</ele>
        <time>2013-01-17T13:01:57.000Z</time>
      </trkpt>
      <trkpt lat="43.60071" lon="5.488">
        <ele>365.20001220703</ele>
        <time>2013-01-17T13:02:10.000Z</time>
      </trkpt>
      <trkpt lat="43.6007" lon="5.48743">
        <ele>364</ele>
        <time>2013-01-17T13:02:22.000Z</time>
      </trkpt>
      <trkpt lat="43.60044" lon="5.48693">
        <ele>364</ele>
        <time>2013-01-17T13:02:49.000Z</time>
      </trkpt>
      <trkpt lat="43.6006" lon="5.4871">
        <ele>364</ele>
        <time>2013-01-17T13:08:56.000Z</time>
      </trkpt>
      <trkpt lat="43.60077" lon="5.48765">
        <ele>364.39999389648</ele>
        <time>2013-01-17T13:09:17.000Z</time>
      </trkpt>
      <trkpt lat="43.60057" lon="5.4882">
        <ele>366</ele>
        <time>2013-01-17T13:09:35.000Z</time>
      </trkpt>
      <trkpt lat="43.60031" lon="5.48873">
        <ele>366.79998779297</ele>
        <time>2013-01-17T13:09:52.000Z</time>
      </trkpt>
      <trkpt lat="43.60011" lon="5.48932">
        <ele>368.20001220703</ele>
        <time>2013-01-17T13:10:08.000Z</time>
      </trkpt>
      <trkpt lat="43.59989" lon="5.48988">
        <ele>369.79998779297</ele>
        <time>2013-01-17T13:10:23.000Z</time>
      </trkpt>
      <trkpt lat="43.59969" lon="5.49046">
        <ele>370.79998779297</ele>
        <time>2013-01-17T13:10:39.000Z</time>
      </trkpt>
      <trkpt lat="43.59926" lon="5.49065">
        <ele>372.79998779297</ele>
        <time>2013-01-17T13:10:55.000Z</time>
      </trkpt>
      <trkpt lat="43.59881" lon="5.49055">
        <ele>372.60000610352</ele>
        <time>2013-01-17T13:11:10.000Z</time>
      </trkpt>
      <trkpt lat="43.59837" lon="5.49029">
        <ele>371.60000610352</ele>
        <time>2013-01-17T13:11:25.000Z</time>
      </trkpt>
      <trkpt lat="43.59796" lon="5.49021">
        <ele>371.39999389648</ele>
        <time>2013-01-17T13:12:03.000Z</time>
      </trkpt>
      <trkpt lat="43.59758" lon="5.48978">
        <ele>370.60000610352</ele>
        <time>2013-01-17T13:12:15.000Z</time>
      </trkpt>
      <trkpt lat="43.59723" lon="5.48945">
        <ele>369.60000610352</ele>
        <time>2013-01-17T13:12:46.000Z</time>
      </trkpt>
      <trkpt lat="43.59684" lon="5.48969">
        <ele>369</ele>
        <time>2013-01-17T13:13:02.000Z</time>
      </trkpt>
      <trkpt lat="43.5964" lon="5.49">
        <ele>369.60000610352</ele>
        <time>2013-01-17T13:13:18.000Z</time>
      </trkpt>
      <trkpt lat="43.59612" lon="5.49049">
        <ele>374.79998779297</ele>
        <time>2013-01-17T13:13:32.000Z</time>
      </trkpt>
      <trkpt lat="43.59583" lon="5.4909">
        <ele>378.39999389648</ele>
        <time>2013-01-17T13:13:52.000Z</time>
      </trkpt>
      <trkpt lat="43.59558" lon="5.49145">
        <ele>383.39999389648</ele>
        <time>2013-01-17T13:14:12.000Z</time>
      </trkpt>
      <trkpt lat="43.59527" lon="5.49193">
        <ele>386.39999389648</ele>
        <time>2013-01-17T13:14:31.000Z</time>
      </trkpt>
      <trkpt lat="43.59486" lon="5.49228">
        <ele>385.79998779297</ele>
        <time>2013-01-17T13:14:46.000Z</time>
      </trkpt>
      <trkpt lat="43.59458" lon="5.49282">
        <ele>384.20001220703</ele>
        <time>2013-01-17T13:14:55.000Z</time>
      </trkpt>
      <trkpt lat="43.59438" lon="5.49341">
        <ele>383.79998779297</ele>
        <time>2013-01-17T13:15:04.000Z</time>
      </trkpt>
      <trkpt lat="43.5942" lon="5.49402">
        <ele>385.39999389648</ele>
        <time>2013-01-17T13:15:15.000Z</time>
      </trkpt>
      <trkpt lat="43.59403" lon="5.49466">
        <ele>386.39999389648</ele>
        <time>2013-01-17T13:15:27.000Z</time>
      </trkpt>
      <trkpt lat="43.59374" lon="5.49524">
        <ele>385</ele>
        <time>2013-01-17T13:15:38.000Z</time>
      </trkpt>
      <trkpt lat="43.59341" lon="5.49573">
        <ele>382.39999389648</ele>
        <time>2013-01-17T13:15:47.000Z</time>
      </trkpt>
      <trkpt lat="43.59307" lon="5.49625">
        <ele>379.39999389648</ele>
        <time>2013-01-17T13:15:54.000Z</time>
      </trkpt>
      <trkpt lat="43.59279" lon="5.49686">
        <ele>375.79998779297</ele>
        <time>2013-01-17T13:16:00.000Z</time>
      </trkpt>
      <trkpt lat="43.59277" lon="5.49749">
        <ele>373.60000610352</ele>
        <time>2013-01-17T13:16:06.000Z</time>
      </trkpt>
      <trkpt lat="43.59258" lon="5.49806">
        <ele>369.60000610352</ele>
        <time>2013-01-17T13:16:11.000Z</time>
      </trkpt>
      <trkpt lat="43.59267" lon="5.49874">
        <ele>369.79998779297</ele>
        <time>2013-01-17T13:16:18.000Z</time>
      </trkpt>
      <trkpt lat="43.5927" lon="5.49936">
        <ele>370</ele>
        <time>2013-01-17T13:16:26.000Z</time>
      </trkpt>
      <trkpt lat="43.59269" lon="5.50003">
        <ele>371</ele>
        <time>2013-01-17T13:16:35.000Z</time>
      </trkpt>
      <trkpt lat="43.59236" lon="5.50028">
        <ele>367.60000610352</ele>
        <time>2013-01-17T13:16:45.000Z</time>
      </trkpt>
      <trkpt lat="43.59192" lon="5.50027">
        <ele>364.60000610352</ele>
        <time>2013-01-17T13:16:51.000Z</time>
      </trkpt>
      <trkpt lat="43.59147" lon="5.50025">
        <ele>362.79998779297</ele>
        <time>2013-01-17T13:16:57.000Z</time>
      </trkpt>
      <trkpt lat="43.59097" lon="5.50021">
        <ele>362.60000610352</ele>
        <time>2013-01-17T13:17:05.000Z</time>
      </trkpt>
      <trkpt lat="43.59051" lon="5.49999">
        <ele>361.60000610352</ele>
        <time>2013-01-17T13:17:13.000Z</time>
      </trkpt>
      <trkpt lat="43.59006" lon="5.4997">
        <ele>359.60000610352</ele>
        <time>2013-01-17T13:17:21.000Z</time>
      </trkpt>
      <trkpt lat="43.58954" lon="5.49975">
        <ele>358</ele>
        <time>2013-01-17T13:17:29.000Z</time>
      </trkpt>
      <trkpt lat="43.58902" lon="5.49965">
        <ele>355.20001220703</ele>
        <time>2013-01-17T13:17:36.000Z</time>
      </trkpt>
      <trkpt lat="43.58861" lon="5.49925">
        <ele>351.79998779297</ele>
        <time>2013-01-17T13:17:42.000Z</time>
      </trkpt>
      <trkpt lat="43.58821" lon="5.49885">
        <ele>347.79998779297</ele>
        <time>2013-01-17T13:17:48.000Z</time>
      </trkpt>
      <trkpt lat="43.58777" lon="5.49878">
        <ele>346</ele>
        <time>2013-01-17T13:17:55.000Z</time>
      </trkpt>
      <trkpt lat="43.58729" lon="5.49904">
        <ele>345.39999389648</ele>
        <time>2013-01-17T13:18:03.000Z</time>
      </trkpt>
      <trkpt lat="43.58683" lon="5.49929">
        <ele>342.79998779297</ele>
        <time>2013-01-17T13:18:10.000Z</time>
      </trkpt>
      <trkpt lat="43.58637" lon="5.4995">
        <ele>340</ele>
        <time>2013-01-17T13:18:16.000Z</time>
      </trkpt>
      <trkpt lat="43.58599" lon="5.49972">
        <ele>337.60000610352</ele>
        <time>2013-01-17T13:18:24.000Z</time>
      </trkpt>
      <trkpt lat="43.5857" lon="5.50007">
        <ele>337.20001220703</ele>
        <time>2013-01-17T13:18:32.000Z</time>
      </trkpt>
      <trkpt lat="43.58531" lon="5.50039">
        <ele>340</ele>
        <time>2013-01-17T13:18:41.000Z</time>
      </trkpt>
      <trkpt lat="43.58521" lon="5.50104">
        <ele>343.60000610352</ele>
        <time>2013-01-17T13:18:53.000Z</time>
      </trkpt>
      <trkpt lat="43.58497" lon="5.50161">
        <ele>345.79998779297</ele>
        <time>2013-01-17T13:19:06.000Z</time>
      </trkpt>
      <trkpt lat="43.58466" lon="5.50209">
        <ele>343.79998779297</ele>
        <time>2013-01-17T13:19:18.000Z</time>
      </trkpt>
      <trkpt lat="43.5842" lon="5.50231">
        <ele>343.60000610352</ele>
        <time>2013-01-17T13:19:30.000Z</time>
      </trkpt>
      <trkpt lat="43.58373" lon="5.50249">
        <ele>343</ele>
        <time>2013-01-17T13:19:39.000Z</time>
      </trkpt>
      <trkpt lat="43.58361" lon="5.50269">
        <ele>342.79998779297</ele>
        <time>2013-01-17T13:19:52.000Z</time>
      </trkpt>
      <trkpt lat="43.58402" lon="5.50304">
        <ele>342.79998779297</ele>
        <time>2013-01-17T13:20:02.000Z</time>
      </trkpt>
      <trkpt lat="43.58449" lon="5.50332">
        <ele>341.79998779297</ele>
        <time>2013-01-17T13:20:12.000Z</time>
      </trkpt>
      <trkpt lat="43.58479" lon="5.50372">
        <ele>341.39999389648</ele>
        <time>2013-01-17T13:20:23.000Z</time>
      </trkpt>
      <trkpt lat="43.58477" lon="5.50438">
        <ele>342.20001220703</ele>
        <time>2013-01-17T13:20:32.000Z</time>
      </trkpt>
      <trkpt lat="43.58468" lon="5.50499">
        <ele>342</ele>
        <time>2013-01-17T13:20:41.000Z</time>
      </trkpt>
      <trkpt lat="43.5842" lon="5.50522">
        <ele>346</ele>
        <time>2013-01-17T13:21:01.000Z</time>
      </trkpt>
      <trkpt lat="43.58376" lon="5.50542">
        <ele>351.20001220703</ele>
        <time>2013-01-17T13:21:22.000Z</time>
      </trkpt>
      <trkpt lat="43.58331" lon="5.50564">
        <ele>356.60000610352</ele>
        <time>2013-01-17T13:21:46.000Z</time>
      </trkpt>
      <trkpt lat="43.58307" lon="5.50506">
        <ele>358.20001220703</ele>
        <time>2013-01-17T13:22:10.000Z</time>
      </trkpt>
      <trkpt lat="43.58264" lon="5.50526">
        <ele>359.60000610352</ele>
        <time>2013-01-17T13:22:34.000Z</time>
      </trkpt>
      <trkpt lat="43.58223" lon="5.50575">
        <ele>360.79998779297</ele>
        <time>2013-01-17T13:22:55.000Z</time>
      </trkpt>
      <trkpt lat="43.58187" lon="5.50625">
        <ele>361</ele>
        <time>2013-01-17T13:23:12.000Z</time>
      </trkpt>
      <trkpt lat="43.5816" lon="5.50679">
        <ele>364</ele>
        <time>2013-01-17T13:23:28.000Z</time>
      </trkpt>
      <trkpt lat="43.58135" lon="5.50736">
        <ele>366.39999389648</ele>
        <time>2013-01-17T13:23:44.000Z</time>
      </trkpt>
      <trkpt lat="43.58112" lon="5.50791">
        <ele>370.39999389648</ele>
        <time>2013-01-17T13:24:01.000Z</time>
      </trkpt>
      <trkpt lat="43.5809" lon="5.50851">
        <ele>374.60000610352</ele>
        <time>2013-01-17T13:24:20.000Z</time>
      </trkpt>
      <trkpt lat="43.58073" lon="5.50913">
        <ele>379.20001220703</ele>
        <time>2013-01-17T13:24:42.000Z</time>
      </trkpt>
      <trkpt lat="43.58044" lon="5.50962">
        <ele>381.39999389648</ele>
        <time>2013-01-17T13:25:02.000Z</time>
      </trkpt>
      <trkpt lat="43.58002" lon="5.50987">
        <ele>387</ele>
        <time>2013-01-17T13:25:22.000Z</time>
      </trkpt>
      <trkpt lat="43.57961" lon="5.51024">
        <ele>391</ele>
        <time>2013-01-17T13:25:48.000Z</time>
      </trkpt>
      <trkpt lat="43.57919" lon="5.51063">
        <ele>397.39999389648</ele>
        <time>2013-01-17T13:26:15.000Z</time>
      </trkpt>
      <trkpt lat="43.5788" lon="5.51101">
        <ele>396</ele>
        <time>2013-01-17T13:26:32.000Z</time>
      </trkpt>
      <trkpt lat="43.57853" lon="5.51159">
        <ele>393.79998779297</ele>
        <time>2013-01-17T13:26:46.000Z</time>
      </trkpt>
      <trkpt lat="43.57834" lon="5.51218">
        <ele>391.79998779297</ele>
        <time>2013-01-17T13:26:58.000Z</time>
      </trkpt>
      <trkpt lat="43.57809" lon="5.51273">
        <ele>392.20001220703</ele>
        <time>2013-01-17T13:27:09.000Z</time>
      </trkpt>
      <trkpt lat="43.57797" lon="5.51328">
        <ele>396.20001220703</ele>
        <time>2013-01-17T13:27:23.000Z</time>
      </trkpt>
      <trkpt lat="43.57767" lon="5.51382">
        <ele>404.60000610352</ele>
        <time>2013-01-17T13:27:44.000Z</time>
      </trkpt>
      <trkpt lat="43.57739" lon="5.51435">
        <ele>411.60000610352</ele>
        <time>2013-01-17T13:28:04.000Z</time>
      </trkpt>
      <trkpt lat="43.57703" lon="5.51482">
        <ele>416.60000610352</ele>
        <time>2013-01-17T13:28:26.000Z</time>
      </trkpt>
      <trkpt lat="43.57683" lon="5.51541">
        <ele>421</ele>
        <time>2013-01-17T13:28:50.000Z</time>
      </trkpt>
      <trkpt lat="43.57675" lon="5.51609">
        <ele>425.60000610352</ele>
        <time>2013-01-17T13:29:15.000Z</time>
      </trkpt>
      <trkpt lat="43.57654" lon="5.5167">
        <ele>430</ele>
        <time>2013-01-17T13:29:39.000Z</time>
      </trkpt>
      <trkpt lat="43.57649" lon="5.51735">
        <ele>436.60000610352</ele>
        <time>2013-01-17T13:30:05.000Z</time>
      </trkpt>
      <trkpt lat="43.57654" lon="5.51801">
        <ele>442.39999389648</ele>
        <time>2013-01-17T13:30:32.000Z</time>
      </trkpt>
      <trkpt lat="43.57627" lon="5.51857">
        <ele>446.20001220703</ele>
        <time>2013-01-17T13:30:57.000Z</time>
      </trkpt>
      <trkpt lat="43.57595" lon="5.51906">
        <ele>449.60000610352</ele>
        <time>2013-01-17T13:31:21.000Z</time>
      </trkpt>
      <trkpt lat="43.57554" lon="5.5194">
        <ele>452.60000610352</ele>
        <time>2013-01-17T13:31:45.000Z</time>
      </trkpt>
      <trkpt lat="43.57523" lon="5.5199">
        <ele>455.60000610352</ele>
        <time>2013-01-17T13:32:08.000Z</time>
      </trkpt>
      <trkpt lat="43.57506" lon="5.52051">
        <ele>457.79998779297</ele>
        <time>2013-01-17T13:32:30.000Z</time>
      </trkpt>
      <trkpt lat="43.57485" lon="5.52108">
        <ele>458.20001220703</ele>
        <time>2013-01-17T13:32:49.000Z</time>
      </trkpt>
      <trkpt lat="43.57473" lon="5.52166">
        <ele>458.20001220703</ele>
        <time>2013-01-17T13:33:07.000Z</time>
      </trkpt>
      <trkpt lat="43.57473" lon="5.52232">
        <ele>459.79998779297</ele>
        <time>2013-01-17T13:33:25.000Z</time>
      </trkpt>
      <trkpt lat="43.57465" lon="5.52293">
        <ele>460.20001220703</ele>
        <time>2013-01-17T13:33:41.000Z</time>
      </trkpt>
      <trkpt lat="43.5744" lon="5.52347">
        <ele>460.20001220703</ele>
        <time>2013-01-17T13:33:55.000Z</time>
      </trkpt>
      <trkpt lat="43.57422" lon="5.52404">
        <ele>462</ele>
        <time>2013-01-17T13:34:09.000Z</time>
      </trkpt>
      <trkpt lat="43.57415" lon="5.52467">
        <ele>461</ele>
        <time>2013-01-17T13:34:19.000Z</time>
      </trkpt>
      <trkpt lat="43.57409" lon="5.52532">
        <ele>459.60000610352</ele>
        <time>2013-01-17T13:34:28.000Z</time>
      </trkpt>
      <trkpt lat="43.57404" lon="5.52592">
        <ele>460.20001220703</ele>
        <time>2013-01-17T13:34:38.000Z</time>
      </trkpt>
      <trkpt lat="43.57398" lon="5.52655">
        <ele>462.20001220703</ele>
        <time>2013-01-17T13:34:50.000Z</time>
      </trkpt>
      <trkpt lat="43.57392" lon="5.52717">
        <ele>460.39999389648</ele>
        <time>2013-01-17T13:35:02.000Z</time>
      </trkpt>
      <trkpt lat="43.57381" lon="5.52783">
        <ele>460.39999389648</ele>
        <time>2013-01-17T13:35:14.000Z</time>
      </trkpt>
      <trkpt lat="43.57378" lon="5.52845">
        <ele>463.20001220703</ele>
        <time>2013-01-17T13:35:26.000Z</time>
      </trkpt>
      <trkpt lat="43.57375" lon="5.52909">
        <ele>467.39999389648</ele>
        <time>2013-01-17T13:35:42.000Z</time>
      </trkpt>
      <trkpt lat="43.57376" lon="5.52973">
        <ele>471.60000610352</ele>
        <time>2013-01-17T13:35:58.000Z</time>
      </trkpt>
      <trkpt lat="43.57377" lon="5.53041">
        <ele>475.39999389648</ele>
        <time>2013-01-17T13:36:16.000Z</time>
      </trkpt>
      <trkpt lat="43.5738" lon="5.53104">
        <ele>477.60000610352</ele>
        <time>2013-01-17T13:36:32.000Z</time>
      </trkpt>
      <trkpt lat="43.57382" lon="5.53167">
        <ele>477.20001220703</ele>
        <time>2013-01-17T13:36:47.000Z</time>
      </trkpt>
      <trkpt lat="43.57387" lon="5.5323">
        <ele>477</ele>
        <time>2013-01-17T13:37:02.000Z</time>
      </trkpt>
      <trkpt lat="43.5739" lon="5.53291">
        <ele>478.39999389648</ele>
        <time>2013-01-17T13:37:17.000Z</time>
      </trkpt>
      <trkpt lat="43.57375" lon="5.53354">
        <ele>479</ele>
        <time>2013-01-17T13:37:32.000Z</time>
      </trkpt>
      <trkpt lat="43.57352" lon="5.53412">
        <ele>478.79998779297</ele>
        <time>2013-01-17T13:37:47.000Z</time>
      </trkpt>
      <trkpt lat="43.57326" lon="5.53463">
        <ele>479.60000610352</ele>
        <time>2013-01-17T13:38:00.000Z</time>
      </trkpt>
      <trkpt lat="43.57301" lon="5.53514">
        <ele>481.20001220703</ele>
        <time>2013-01-17T13:38:14.000Z</time>
      </trkpt>
      <trkpt lat="43.57272" lon="5.53564">
        <ele>484.60000610352</ele>
        <time>2013-01-17T13:38:30.000Z</time>
      </trkpt>
      <trkpt lat="43.57246" lon="5.53617">
        <ele>489.39999389648</ele>
        <time>2013-01-17T13:38:48.000Z</time>
      </trkpt>
      <trkpt lat="43.57223" lon="5.5367">
        <ele>490.79998779297</ele>
        <time>2013-01-17T13:39:08.000Z</time>
      </trkpt>
      <trkpt lat="43.57195" lon="5.53711">
        <ele>491.60000610352</ele>
        <time>2013-01-17T13:42:52.000Z</time>
      </trkpt>
      <trkpt lat="43.57169" lon="5.53764">
        <ele>493.60000610352</ele>
        <time>2013-01-17T13:43:08.000Z</time>
      </trkpt>
      <trkpt lat="43.57147" lon="5.53818">
        <ele>494.60000610352</ele>
        <time>2013-01-17T13:43:22.000Z</time>
      </trkpt>
      <trkpt lat="43.57122" lon="5.53877">
        <ele>495</ele>
        <time>2013-01-17T13:43:35.000Z</time>
      </trkpt>
      <trkpt lat="43.57093" lon="5.53928">
        <ele>497.20001220703</ele>
        <time>2013-01-17T13:43:48.000Z</time>
      </trkpt>
      <trkpt lat="43.57076" lon="5.53988">
        <ele>498.60000610352</ele>
        <time>2013-01-17T13:44:01.000Z</time>
      </trkpt>
      <trkpt lat="43.57068" lon="5.54049">
        <ele>501.39999389648</ele>
        <time>2013-01-17T13:44:14.000Z</time>
      </trkpt>
      <trkpt lat="43.57063" lon="5.54114">
        <ele>504.60000610352</ele>
        <time>2013-01-17T13:44:27.000Z</time>
      </trkpt>
      <trkpt lat="43.57056" lon="5.54181">
        <ele>506.60000610352</ele>
        <time>2013-01-17T13:44:40.000Z</time>
      </trkpt>
      <trkpt lat="43.57039" lon="5.54239">
        <ele>505.60000610352</ele>
        <time>2013-01-17T13:44:52.000Z</time>
      </trkpt>
      <trkpt lat="43.57014" lon="5.54294">
        <ele>506.39999389648</ele>
        <time>2013-01-17T13:45:04.000Z</time>
      </trkpt>
      <trkpt lat="43.56978" lon="5.54339">
        <ele>507.79998779297</ele>
        <time>2013-01-17T13:45:16.000Z</time>
      </trkpt>
      <trkpt lat="43.56933" lon="5.54352">
        <ele>508</ele>
        <time>2013-01-17T13:45:27.000Z</time>
      </trkpt>
      <trkpt lat="43.56887" lon="5.54362">
        <ele>506.39999389648</ele>
        <time>2013-01-17T13:45:37.000Z</time>
      </trkpt>
      <trkpt lat="43.56837" lon="5.54369">
        <ele>503.20001220703</ele>
        <time>2013-01-17T13:45:46.000Z</time>
      </trkpt>
      <trkpt lat="43.56792" lon="5.5439">
        <ele>500.20001220703</ele>
        <time>2013-01-17T13:45:56.000Z</time>
      </trkpt>
      <trkpt lat="43.56754" lon="5.5443">
        <ele>498</ele>
        <time>2013-01-17T13:46:08.000Z</time>
      </trkpt>
      <trkpt lat="43.56706" lon="5.54457">
        <ele>494</ele>
        <time>2013-01-17T13:46:17.000Z</time>
      </trkpt>
      <trkpt lat="43.56658" lon="5.54471">
        <ele>490.20001220703</ele>
        <time>2013-01-17T13:46:24.000Z</time>
      </trkpt>
      <trkpt lat="43.56606" lon="5.54478">
        <ele>486.20001220703</ele>
        <time>2013-01-17T13:46:31.000Z</time>
      </trkpt>
      <trkpt lat="43.56559" lon="5.54472">
        <ele>485.39999389648</ele>
        <time>2013-01-17T13:46:38.000Z</time>
      </trkpt>
      <trkpt lat="43.56514" lon="5.54467">
        <ele>487</ele>
        <time>2013-01-17T13:46:48.000Z</time>
      </trkpt>
      <trkpt lat="43.56468" lon="5.54465">
        <ele>485.60000610352</ele>
        <time>2013-01-17T13:46:58.000Z</time>
      </trkpt>
      <trkpt lat="43.56417" lon="5.5447">
        <ele>482.20001220703</ele>
        <time>2013-01-17T13:47:06.000Z</time>
      </trkpt>
      <trkpt lat="43.5637" lon="5.54463">
        <ele>480</ele>
        <time>2013-01-17T13:47:12.000Z</time>
      </trkpt>
      <trkpt lat="43.5632" lon="5.54458">
        <ele>477.20001220703</ele>
        <time>2013-01-17T13:47:18.000Z</time>
      </trkpt>
      <trkpt lat="43.56272" lon="5.54473">
        <ele>474.79998779297</ele>
        <time>2013-01-17T13:47:24.000Z</time>
      </trkpt>
      <trkpt lat="43.56226" lon="5.54458">
        <ele>472.60000610352</ele>
        <time>2013-01-17T13:47:30.000Z</time>
      </trkpt>
      <trkpt lat="43.56185" lon="5.54414">
        <ele>471.79998779297</ele>
        <time>2013-01-17T13:47:37.000Z</time>
      </trkpt>
      <trkpt lat="43.5615" lon="5.54366">
        <ele>470.39999389648</ele>
        <time>2013-01-17T13:47:44.000Z</time>
      </trkpt>
      <trkpt lat="43.56115" lon="5.54322">
        <ele>469.39999389648</ele>
        <time>2013-01-17T13:47:51.000Z</time>
      </trkpt>
      <trkpt lat="43.56079" lon="5.5428">
        <ele>470.39999389648</ele>
        <time>2013-01-17T13:47:58.000Z</time>
      </trkpt>
      <trkpt lat="43.56049" lon="5.54226">
        <ele>471.79998779297</ele>
        <time>2013-01-17T13:48:06.000Z</time>
      </trkpt>
      <trkpt lat="43.56027" lon="5.54168">
        <ele>471.79998779297</ele>
        <time>2013-01-17T13:48:15.000Z</time>
      </trkpt>
      <trkpt lat="43.56003" lon="5.5411">
        <ele>470.39999389648</ele>
        <time>2013-01-17T13:48:25.000Z</time>
      </trkpt>
      <trkpt lat="43.55973" lon="5.54063">
        <ele>470</ele>
        <time>2013-01-17T13:48:34.000Z</time>
      </trkpt>
      <trkpt lat="43.5594" lon="5.54012">
        <ele>471.79998779297</ele>
        <time>2013-01-17T13:48:44.000Z</time>
      </trkpt>
      <trkpt lat="43.55909" lon="5.53958">
        <ele>473.39999389648</ele>
        <time>2013-01-17T13:48:54.000Z</time>
      </trkpt>
      <trkpt lat="43.55872" lon="5.53915">
        <ele>474.39999389648</ele>
        <time>2013-01-17T13:49:05.000Z</time>
      </trkpt>
      <trkpt lat="43.55838" lon="5.53863">
        <ele>472.20001220703</ele>
        <time>2013-01-17T13:49:14.000Z</time>
      </trkpt>
      <trkpt lat="43.55808" lon="5.53812">
        <ele>469.39999389648</ele>
        <time>2013-01-17T13:49:21.000Z</time>
      </trkpt>
      <trkpt lat="43.55793" lon="5.53743">
        <ele>468.20001220703</ele>
        <time>2013-01-17T13:49:28.000Z</time>
      </trkpt>
      <trkpt lat="43.55776" lon="5.53679">
        <ele>466.20001220703</ele>
        <time>2013-01-17T13:49:35.000Z</time>
      </trkpt>
      <trkpt lat="43.55762" lon="5.53619">
        <ele>464</ele>
        <time>2013-01-17T13:49:41.000Z</time>
      </trkpt>
      <trkpt lat="43.55742" lon="5.53563">
        <ele>462</ele>
        <time>2013-01-17T13:49:47.000Z</time>
      </trkpt>
      <trkpt lat="43.55713" lon="5.53505">
        <ele>459.20001220703</ele>
        <time>2013-01-17T13:49:54.000Z</time>
      </trkpt>
      <trkpt lat="43.55672" lon="5.53469">
        <ele>458.20001220703</ele>
        <time>2013-01-17T13:50:01.000Z</time>
      </trkpt>
      <trkpt lat="43.55624" lon="5.53464">
        <ele>457</ele>
        <time>2013-01-17T13:50:07.000Z</time>
      </trkpt>
      <trkpt lat="43.5558" lon="5.5348">
        <ele>455</ele>
        <time>2013-01-17T13:50:13.000Z</time>
      </trkpt>
      <trkpt lat="43.55541" lon="5.53444">
        <ele>451</ele>
        <time>2013-01-17T13:50:21.000Z</time>
      </trkpt>
      <trkpt lat="43.55524" lon="5.53381">
        <ele>450.20001220703</ele>
        <time>2013-01-17T13:50:28.000Z</time>
      </trkpt>
      <trkpt lat="43.55525" lon="5.53346">
        <ele>450.79998779297</ele>
        <time>2013-01-17T13:54:01.000Z</time>
      </trkpt>
      <trkpt lat="43.5549" lon="5.53311">
        <ele>449.79998779297</ele>
        <time>2013-01-17T13:54:42.000Z</time>
      </trkpt>
      <trkpt lat="43.55489" lon="5.53246">
        <ele>454.39999389648</ele>
        <time>2013-01-17T13:55:01.000Z</time>
      </trkpt>
      <trkpt lat="43.55477" lon="5.53177">
        <ele>453.39999389648</ele>
        <time>2013-01-17T13:55:14.000Z</time>
      </trkpt>
      <trkpt lat="43.55477" lon="5.53109">
        <ele>452.79998779297</ele>
        <time>2013-01-17T13:55:26.000Z</time>
      </trkpt>
      <trkpt lat="43.55477" lon="5.53047">
        <ele>454</ele>
        <time>2013-01-17T13:55:36.000Z</time>
      </trkpt>
      <trkpt lat="43.55466" lon="5.52977">
        <ele>454</ele>
        <time>2013-01-17T13:55:53.000Z</time>
      </trkpt>
      <trkpt lat="43.5544" lon="5.52915">
        <ele>450.60000610352</ele>
        <time>2013-01-17T13:56:06.000Z</time>
      </trkpt>
      <trkpt lat="43.55433" lon="5.52849">
        <ele>446.60000610352</ele>
        <time>2013-01-17T13:56:14.000Z</time>
      </trkpt>
      <trkpt lat="43.55423" lon="5.52778">
        <ele>443.39999389648</ele>
        <time>2013-01-17T13:56:23.000Z</time>
      </trkpt>
      <trkpt lat="43.55403" lon="5.52717">
        <ele>440.20001220703</ele>
        <time>2013-01-17T13:56:32.000Z</time>
      </trkpt>
      <trkpt lat="43.55394" lon="5.52647">
        <ele>439.39999389648</ele>
        <time>2013-01-17T13:56:40.000Z</time>
      </trkpt>
      <trkpt lat="43.5538" lon="5.52581">
        <ele>439.39999389648</ele>
        <time>2013-01-17T13:56:48.000Z</time>
      </trkpt>
      <trkpt lat="43.5538" lon="5.52514">
        <ele>439.20001220703</ele>
        <time>2013-01-17T13:56:56.000Z</time>
      </trkpt>
      <trkpt lat="43.55357" lon="5.52459">
        <ele>435.39999389648</ele>
        <time>2013-01-17T13:57:04.000Z</time>
      </trkpt>
      <trkpt lat="43.55322" lon="5.52414">
        <ele>430.20001220703</ele>
        <time>2013-01-17T13:57:13.000Z</time>
      </trkpt>
      <trkpt lat="43.55288" lon="5.52371">
        <ele>427.79998779297</ele>
        <time>2013-01-17T13:57:23.000Z</time>
      </trkpt>
      <trkpt lat="43.55259" lon="5.52318">
        <ele>424.60000610352</ele>
        <time>2013-01-17T13:57:33.000Z</time>
      </trkpt>
      <trkpt lat="43.55223" lon="5.52277">
        <ele>421.20001220703</ele>
        <time>2013-01-17T13:57:42.000Z</time>
      </trkpt>
      <trkpt lat="43.55189" lon="5.52231">
        <ele>418.79998779297</ele>
        <time>2013-01-17T13:57:50.000Z</time>
      </trkpt>
      <trkpt lat="43.55158" lon="5.52174">
        <ele>418.39999389648</ele>
        <time>2013-01-17T13:57:58.000Z</time>
      </trkpt>
      <trkpt lat="43.55126" lon="5.52133">
        <ele>418</ele>
        <time>2013-01-17T13:58:09.000Z</time>
      </trkpt>
      <trkpt lat="43.55101" lon="5.52194">
        <ele>415.39999389648</ele>
        <time>2013-01-17T13:58:39.000Z</time>
      </trkpt>
      <trkpt lat="43.55118" lon="5.52256">
        <ele>415</ele>
        <time>2013-01-17T13:58:51.000Z</time>
      </trkpt>
      <trkpt lat="43.55089" lon="5.52246">
        <ele>414.20001220703</ele>
        <time>2013-01-17T13:59:29.000Z</time>
      </trkpt>
      <trkpt lat="43.55056" lon="5.52206">
        <ele>412.39999389648</ele>
        <time>2013-01-17T13:59:48.000Z</time>
      </trkpt>
      <trkpt lat="43.5505" lon="5.5214">
        <ele>412</ele>
        <time>2013-01-17T14:00:02.000Z</time>
      </trkpt>
      <trkpt lat="43.55038" lon="5.52075">
        <ele>410.39999389648</ele>
        <time>2013-01-17T14:00:16.000Z</time>
      </trkpt>
      <trkpt lat="43.55042" lon="5.5201">
        <ele>411.39999389648</ele>
        <time>2013-01-17T14:00:29.000Z</time>
      </trkpt>
      <trkpt lat="43.55017" lon="5.51962">
        <ele>409.79998779297</ele>
        <time>2013-01-17T14:00:41.000Z</time>
      </trkpt>
      <trkpt lat="43.55005" lon="5.51903">
        <ele>410.20001220703</ele>
        <time>2013-01-17T14:00:52.000Z</time>
      </trkpt>
      <trkpt lat="43.54991" lon="5.51841">
        <ele>407.39999389648</ele>
        <time>2013-01-17T14:01:02.000Z</time>
      </trkpt>
      <trkpt lat="43.54961" lon="5.51786">
        <ele>402.39999389648</ele>
        <time>2013-01-17T14:01:14.000Z</time>
      </trkpt>
      <trkpt lat="43.54949" lon="5.51725">
        <ele>399.60000610352</ele>
        <time>2013-01-17T14:01:23.000Z</time>
      </trkpt>
      <trkpt lat="43.54985" lon="5.51695">
        <ele>403.20001220703</ele>
        <time>2013-01-17T14:01:35.000Z</time>
      </trkpt>
      <trkpt lat="43.55019" lon="5.51659">
        <ele>404.79998779297</ele>
        <time>2013-01-17T14:01:46.000Z</time>
      </trkpt>
      <trkpt lat="43.55032" lon="5.51595">
        <ele>400.79998779297</ele>
        <time>2013-01-17T14:01:54.000Z</time>
      </trkpt>
      <trkpt lat="43.55049" lon="5.51539">
        <ele>398.60000610352</ele>
        <time>2013-01-17T14:02:05.000Z</time>
      </trkpt>
      <trkpt lat="43.55028" lon="5.51484">
        <ele>396.60000610352</ele>
        <time>2013-01-17T14:02:15.000Z</time>
      </trkpt>
      <trkpt lat="43.54978" lon="5.5149">
        <ele>396.20001220703</ele>
        <time>2013-01-17T14:02:25.000Z</time>
      </trkpt>
      <trkpt lat="43.54929" lon="5.51498">
        <ele>395.20001220703</ele>
        <time>2013-01-17T14:02:35.000Z</time>
      </trkpt>
      <trkpt lat="43.54882" lon="5.51483">
        <ele>395</ele>
        <time>2013-01-17T14:02:45.000Z</time>
      </trkpt>
      <trkpt lat="43.54858" lon="5.5143">
        <ele>397.79998779297</ele>
        <time>2013-01-17T14:02:54.000Z</time>
      </trkpt>
      <trkpt lat="43.54862" lon="5.5136">
        <ele>401.60000610352</ele>
        <time>2013-01-17T14:03:04.000Z</time>
      </trkpt>
      <trkpt lat="43.54841" lon="5.51309">
        <ele>401.39999389648</ele>
        <time>2013-01-17T14:03:14.000Z</time>
      </trkpt>
      <trkpt lat="43.5483" lon="5.51247">
        <ele>398.60000610352</ele>
        <time>2013-01-17T14:03:24.000Z</time>
      </trkpt>
      <trkpt lat="43.54801" lon="5.51192">
        <ele>396.60000610352</ele>
        <time>2013-01-17T14:03:36.000Z</time>
      </trkpt>
      <trkpt lat="43.5475" lon="5.51209">
        <ele>393.79998779297</ele>
        <time>2013-01-17T14:03:45.000Z</time>
      </trkpt>
      <trkpt lat="43.54696" lon="5.5121">
        <ele>390.60000610352</ele>
        <time>2013-01-17T14:03:52.000Z</time>
      </trkpt>
      <trkpt lat="43.54647" lon="5.51224">
        <ele>387.79998779297</ele>
        <time>2013-01-17T14:03:58.000Z</time>
      </trkpt>
      <trkpt lat="43.54597" lon="5.5124">
        <ele>385.39999389648</ele>
        <time>2013-01-17T14:04:04.000Z</time>
      </trkpt>
      <trkpt lat="43.54552" lon="5.51266">
        <ele>380.79998779297</ele>
        <time>2013-01-17T14:04:11.000Z</time>
      </trkpt>
      <trkpt lat="43.54547" lon="5.51338">
        <ele>378.79998779297</ele>
        <time>2013-01-17T14:04:17.000Z</time>
      </trkpt>
      <trkpt lat="43.54534" lon="5.51392">
        <ele>375.79998779297</ele>
        <time>2013-01-17T14:04:28.000Z</time>
      </trkpt>
      <trkpt lat="43.54505" lon="5.51342">
        <ele>374.39999389648</ele>
        <time>2013-01-17T14:04:37.000Z</time>
      </trkpt>
      <trkpt lat="43.54474" lon="5.51286">
        <ele>373.79998779297</ele>
        <time>2013-01-17T14:04:44.000Z</time>
      </trkpt>
      <trkpt lat="43.54447" lon="5.51234">
        <ele>372.79998779297</ele>
        <time>2013-01-17T14:04:50.000Z</time>
      </trkpt>
      <trkpt lat="43.54417" lon="5.51178">
        <ele>373.39999389648</ele>
        <time>2013-01-17T14:04:57.000Z</time>
      </trkpt>
      <trkpt lat="43.54385" lon="5.51157">
        <ele>372</ele>
        <time>2013-01-17T14:05:07.000Z</time>
      </trkpt>
      <trkpt lat="43.54345" lon="5.51173">
        <ele>369.79998779297</ele>
        <time>2013-01-17T14:05:21.000Z</time>
      </trkpt>
      <trkpt lat="43.54297" lon="5.51162">
        <ele>370.79998779297</ele>
        <time>2013-01-17T14:05:32.000Z</time>
      </trkpt>
      <trkpt lat="43.54271" lon="5.51116">
        <ele>370.79998779297</ele>
        <time>2013-01-17T14:05:45.000Z</time>
      </trkpt>
      <trkpt lat="43.54239" lon="5.51069">
        <ele>370.20001220703</ele>
        <time>2013-01-17T14:06:00.000Z</time>
      </trkpt>
      <trkpt lat="43.54204" lon="5.51023">
        <ele>369</ele>
        <time>2013-01-17T14:06:11.000Z</time>
      </trkpt>
      <trkpt lat="43.54175" lon="5.50968">
        <ele>370</ele>
        <time>2013-01-17T14:06:22.000Z</time>
      </trkpt>
      <trkpt lat="43.54151" lon="5.50917">
        <ele>370.79998779297</ele>
        <time>2013-01-17T14:06:32.000Z</time>
      </trkpt>
      <trkpt lat="43.54114" lon="5.50879">
        <ele>368.60000610352</ele>
        <time>2013-01-17T14:06:42.000Z</time>
      </trkpt>
      <trkpt lat="43.54085" lon="5.50826">
        <ele>368</ele>
        <time>2013-01-17T14:06:53.000Z</time>
      </trkpt>
      <trkpt lat="43.54043" lon="5.50784">
        <ele>366.39999389648</ele>
        <time>2013-01-17T14:07:03.000Z</time>
      </trkpt>
      <trkpt lat="43.53999" lon="5.50759">
        <ele>365.60000610352</ele>
        <time>2013-01-17T14:07:13.000Z</time>
      </trkpt>
      <trkpt lat="43.53952" lon="5.50769">
        <ele>362.79998779297</ele>
        <time>2013-01-17T14:07:22.000Z</time>
      </trkpt>
      <trkpt lat="43.53917" lon="5.50812">
        <ele>361</ele>
        <time>2013-01-17T14:07:30.000Z</time>
      </trkpt>
      <trkpt lat="43.53879" lon="5.50856">
        <ele>356.39999389648</ele>
        <time>2013-01-17T14:07:39.000Z</time>
      </trkpt>
      <trkpt lat="43.53833" lon="5.50872">
        <ele>352.20001220703</ele>
        <time>2013-01-17T14:07:47.000Z</time>
      </trkpt>
      <trkpt lat="43.53785" lon="5.50849">
        <ele>346.60000610352</ele>
        <time>2013-01-17T14:07:54.000Z</time>
      </trkpt>
      <trkpt lat="43.5374" lon="5.5084">
        <ele>342</ele>
        <time>2013-01-17T14:08:00.000Z</time>
      </trkpt>
      <trkpt lat="43.53708" lon="5.50801">
        <ele>340</ele>
        <time>2013-01-17T14:08:08.000Z</time>
      </trkpt>
      <trkpt lat="43.53678" lon="5.50754">
        <ele>338.60000610352</ele>
        <time>2013-01-17T14:08:17.000Z</time>
      </trkpt>
      <trkpt lat="43.53645" lon="5.50713">
        <ele>336.60000610352</ele>
        <time>2013-01-17T14:08:27.000Z</time>
      </trkpt>
      <trkpt lat="43.53617" lon="5.50666">
        <ele>335.79998779297</ele>
        <time>2013-01-17T14:08:39.000Z</time>
      </trkpt>
      <trkpt lat="43.53621" lon="5.50606">
        <ele>341.20001220703</ele>
        <time>2013-01-17T14:08:53.000Z</time>
      </trkpt>
      <trkpt lat="43.53607" lon="5.50546">
        <ele>344.20001220703</ele>
        <time>2013-01-17T14:09:07.000Z</time>
      </trkpt>
      <trkpt lat="43.53585" lon="5.50486">
        <ele>346.79998779297</ele>
        <time>2013-01-17T14:09:31.000Z</time>
      </trkpt>
      <trkpt lat="43.53574" lon="5.50421">
        <ele>350</ele>
        <time>2013-01-17T14:09:48.000Z</time>
      </trkpt>
      <trkpt lat="43.53563" lon="5.50353">
        <ele>352.79998779297</ele>
        <time>2013-01-17T14:10:05.000Z</time>
      </trkpt>
      <trkpt lat="43.53569" lon="5.50289">
        <ele>355.39999389648</ele>
        <time>2013-01-17T14:10:20.000Z</time>
      </trkpt>
      <trkpt lat="43.53597" lon="5.50234">
        <ele>356.79998779297</ele>
        <time>2013-01-17T14:10:36.000Z</time>
      </trkpt>
      <trkpt lat="43.53628" lon="5.50185">
        <ele>356.60000610352</ele>
        <time>2013-01-17T14:10:50.000Z</time>
      </trkpt>
      <trkpt lat="43.53641" lon="5.50122">
        <ele>356.20001220703</ele>
        <time>2013-01-17T14:11:04.000Z</time>
      </trkpt>
      <trkpt lat="43.53654" lon="5.5006">
        <ele>356.39999389648</ele>
        <time>2013-01-17T14:11:16.000Z</time>
      </trkpt>
      <trkpt lat="43.53673" lon="5.50002">
        <ele>357.79998779297</ele>
        <time>2013-01-17T14:11:29.000Z</time>
      </trkpt>
      <trkpt lat="43.53688" lon="5.49938">
        <ele>357.79998779297</ele>
        <time>2013-01-17T14:11:42.000Z</time>
      </trkpt>
      <trkpt lat="43.53695" lon="5.49872">
        <ele>357.20001220703</ele>
        <time>2013-01-17T14:11:55.000Z</time>
      </trkpt>
      <trkpt lat="43.53694" lon="5.49803">
        <ele>356.39999389648</ele>
        <time>2013-01-17T14:12:05.000Z</time>
      </trkpt>
      <trkpt lat="43.53702" lon="5.49734">
        <ele>356.39999389648</ele>
        <time>2013-01-17T14:12:15.000Z</time>
      </trkpt>
      <trkpt lat="43.53674" lon="5.49688">
        <ele>355.20001220703</ele>
        <time>2013-01-17T14:12:26.000Z</time>
      </trkpt>
      <trkpt lat="43.53626" lon="5.49688">
        <ele>353</ele>
        <time>2013-01-17T14:12:39.000Z</time>
      </trkpt>
      <trkpt lat="43.53588" lon="5.4967">
        <ele>351.20001220703</ele>
        <time>2013-01-17T14:12:50.000Z</time>
      </trkpt>
      <trkpt lat="43.53558" lon="5.49621">
        <ele>348.79998779297</ele>
        <time>2013-01-17T14:13:00.000Z</time>
      </trkpt>
      <trkpt lat="43.53509" lon="5.49605">
        <ele>344.20001220703</ele>
        <time>2013-01-17T14:13:08.000Z</time>
      </trkpt>
      <trkpt lat="43.53471" lon="5.49565">
        <ele>341.79998779297</ele>
        <time>2013-01-17T14:13:17.000Z</time>
      </trkpt>
      <trkpt lat="43.53429" lon="5.49541">
        <ele>339.60000610352</ele>
        <time>2013-01-17T14:13:26.000Z</time>
      </trkpt>
      <trkpt lat="43.53389" lon="5.49574">
        <ele>340</ele>
        <time>2013-01-17T14:13:36.000Z</time>
      </trkpt>
      <trkpt lat="43.53346" lon="5.49576">
        <ele>337.60000610352</ele>
        <time>2013-01-17T14:13:46.000Z</time>
      </trkpt>
      <trkpt lat="43.53316" lon="5.49527">
        <ele>338.20001220703</ele>
        <time>2013-01-17T14:13:58.000Z</time>
      </trkpt>
      <trkpt lat="43.53275" lon="5.49501">
        <ele>340</ele>
        <time>2013-01-17T14:14:13.000Z</time>
      </trkpt>
      <trkpt lat="43.53225" lon="5.49501">
        <ele>341.20001220703</ele>
        <time>2013-01-17T14:14:28.000Z</time>
      </trkpt>
      <trkpt lat="43.5318" lon="5.49515">
        <ele>341.79998779297</ele>
        <time>2013-01-17T14:14:44.000Z</time>
      </trkpt>
      <trkpt lat="43.53133" lon="5.49503">
        <ele>342.39999389648</ele>
        <time>2013-01-17T14:14:59.000Z</time>
      </trkpt>
      <trkpt lat="43.53093" lon="5.4946">
        <ele>342.60000610352</ele>
        <time>2013-01-17T14:15:15.000Z</time>
      </trkpt>
      <trkpt lat="43.53055" lon="5.49415">
        <ele>344</ele>
        <time>2013-01-17T14:15:28.000Z</time>
      </trkpt>
      <trkpt lat="43.53022" lon="5.49432">
        <ele>345.20001220703</ele>
        <time>2013-01-17T14:15:45.000Z</time>
      </trkpt>
      <trkpt lat="43.53036" lon="5.49492">
        <ele>345.20001220703</ele>
        <time>2013-01-17T14:16:00.000Z</time>
      </trkpt>
      <trkpt lat="43.53046" lon="5.49557">
        <ele>344.79998779297</ele>
        <time>2013-01-17T14:16:13.000Z</time>
      </trkpt>
      <trkpt lat="43.53058" lon="5.49622">
        <ele>345.79998779297</ele>
        <time>2013-01-17T14:16:26.000Z</time>
      </trkpt>
      <trkpt lat="43.53071" lon="5.49685">
        <ele>347.60000610352</ele>
        <time>2013-01-17T14:16:39.000Z</time>
      </trkpt>
      <trkpt lat="43.5306" lon="5.49751">
        <ele>349.39999389648</ele>
        <time>2013-01-17T14:16:52.000Z</time>
      </trkpt>
      <trkpt lat="43.5306" lon="5.49818">
        <ele>348.60000610352</ele>
        <time>2013-01-17T14:17:03.000Z</time>
      </trkpt>
      <trkpt lat="43.53061" lon="5.49884">
        <ele>348.20001220703</ele>
        <time>2013-01-17T14:17:13.000Z</time>
      </trkpt>
      <trkpt lat="43.53059" lon="5.49947">
        <ele>347.39999389648</ele>
        <time>2013-01-17T14:17:24.000Z</time>
      </trkpt>
      <trkpt lat="43.53087" lon="5.50007">
        <ele>347.39999389648</ele>
        <time>2013-01-17T14:17:35.000Z</time>
      </trkpt>
      <trkpt lat="43.53116" lon="5.50055">
        <ele>346</ele>
        <time>2013-01-17T14:17:48.000Z</time>
      </trkpt>
      <trkpt lat="43.53147" lon="5.5011">
        <ele>348.60000610352</ele>
        <time>2013-01-17T14:18:04.000Z</time>
      </trkpt>
      <trkpt lat="43.53177" lon="5.50162">
        <ele>352</ele>
        <time>2013-01-17T14:18:19.000Z</time>
      </trkpt>
      <trkpt lat="43.53202" lon="5.50219">
        <ele>351.39999389648</ele>
        <time>2013-01-17T14:18:32.000Z</time>
      </trkpt>
      <trkpt lat="43.5322" lon="5.50282">
        <ele>349.20001220703</ele>
        <time>2013-01-17T14:18:43.000Z</time>
      </trkpt>
      <trkpt lat="43.53235" lon="5.50341">
        <ele>347.20001220703</ele>
        <time>2013-01-17T14:18:56.000Z</time>
      </trkpt>
      <trkpt lat="43.53192" lon="5.50366">
        <ele>348.20001220703</ele>
        <time>2013-01-17T14:19:10.000Z</time>
      </trkpt>
      <trkpt lat="43.53156" lon="5.50406">
        <ele>348.79998779297</ele>
        <time>2013-01-17T14:19:21.000Z</time>
      </trkpt>
      <trkpt lat="43.53117" lon="5.5045">
        <ele>347.39999389648</ele>
        <time>2013-01-17T14:19:32.000Z</time>
      </trkpt>
      <trkpt lat="43.53073" lon="5.50482">
        <ele>345.20001220703</ele>
        <time>2013-01-17T14:19:43.000Z</time>
      </trkpt>
      <trkpt lat="43.53024" lon="5.50494">
        <ele>341.79998779297</ele>
        <time>2013-01-17T14:19:52.000Z</time>
      </trkpt>
      <trkpt lat="43.52977" lon="5.50507">
        <ele>335.79998779297</ele>
        <time>2013-01-17T14:20:01.000Z</time>
      </trkpt>
      <trkpt lat="43.5293" lon="5.50515">
        <ele>328.60000610352</ele>
        <time>2013-01-17T14:20:12.000Z</time>
      </trkpt>
      <trkpt lat="43.52887" lon="5.50508">
        <ele>316</ele>
        <time>2013-01-17T14:20:23.000Z</time>
      </trkpt>
      <trkpt lat="43.52872" lon="5.50444">
        <ele>313</ele>
        <time>2013-01-17T14:20:31.000Z</time>
      </trkpt>
      <trkpt lat="43.52879" lon="5.50376">
        <ele>316</ele>
        <time>2013-01-17T14:20:38.000Z</time>
      </trkpt>
      <trkpt lat="43.52855" lon="5.50419">
        <ele>305.60000610352</ele>
        <time>2013-01-17T14:20:52.000Z</time>
      </trkpt>
      <trkpt lat="43.52844" lon="5.50481">
        <ele>298.79998779297</ele>
        <time>2013-01-17T14:20:59.000Z</time>
      </trkpt>
      <trkpt lat="43.52855" lon="5.50542">
        <ele>298.20001220703</ele>
        <time>2013-01-17T14:21:05.000Z</time>
      </trkpt>
      <trkpt lat="43.52879" lon="5.50605">
        <ele>297.79998779297</ele>
        <time>2013-01-17T14:21:12.000Z</time>
      </trkpt>
      <trkpt lat="43.52881" lon="5.50669">
        <ele>292</ele>
        <time>2013-01-17T14:21:21.000Z</time>
      </trkpt>
      <trkpt lat="43.52915" lon="5.50714">
        <ele>285.79998779297</ele>
        <time>2013-01-17T14:21:31.000Z</time>
      </trkpt>
      <trkpt lat="43.52959" lon="5.5072">
        <ele>283.79998779297</ele>
        <time>2013-01-17T14:21:41.000Z</time>
      </trkpt>
      <trkpt lat="43.53008" lon="5.50739">
        <ele>277.20001220703</ele>
        <time>2013-01-17T14:21:51.000Z</time>
      </trkpt>
      <trkpt lat="43.53054" lon="5.50752">
        <ele>271.39999389648</ele>
        <time>2013-01-17T14:22:00.000Z</time>
      </trkpt>
      <trkpt lat="43.53094" lon="5.50798">
        <ele>261.39999389648</ele>
        <time>2013-01-17T14:22:09.000Z</time>
      </trkpt>
      <trkpt lat="43.5313" lon="5.50831">
        <ele>252.60000610352</ele>
        <time>2013-01-17T14:22:17.000Z</time>
      </trkpt>
      <trkpt lat="43.5317" lon="5.50862">
        <ele>241.80000305176</ele>
        <time>2013-01-17T14:22:25.000Z</time>
      </trkpt>
      <trkpt lat="43.53215" lon="5.50864">
        <ele>235.39999389648</ele>
        <time>2013-01-17T14:22:36.000Z</time>
      </trkpt>
      <trkpt lat="43.53264" lon="5.50862">
        <ele>233</ele>
        <time>2013-01-17T14:22:46.000Z</time>
      </trkpt>
      <trkpt lat="43.53296" lon="5.50899">
        <ele>231.19999694824</ele>
        <time>2013-01-17T14:23:00.000Z</time>
      </trkpt>
      <trkpt lat="43.53312" lon="5.50963">
        <ele>231.39999389648</ele>
        <time>2013-01-17T14:23:18.000Z</time>
      </trkpt>
      <trkpt lat="43.53326" lon="5.51028">
        <ele>236</ele>
        <time>2013-01-17T14:23:38.000Z</time>
      </trkpt>
      <trkpt lat="43.53309" lon="5.51083">
        <ele>236.19999694824</ele>
        <time>2013-01-17T14:23:58.000Z</time>
      </trkpt>
      <trkpt lat="43.53311" lon="5.51141">
        <ele>241.60000610352</ele>
        <time>2013-01-17T14:24:22.000Z</time>
      </trkpt>
      <trkpt lat="43.53286" lon="5.51181">
        <ele>241.60000610352</ele>
        <time>2013-01-17T14:24:46.000Z</time>
      </trkpt>
      <trkpt lat="43.53254" lon="5.51136">
        <ele>230.60000610352</ele>
        <time>2013-01-17T14:25:10.000Z</time>
      </trkpt>
      <trkpt lat="43.5321" lon="5.51124">
        <ele>236.39999389648</ele>
        <time>2013-01-17T14:25:28.000Z</time>
      </trkpt>
      <trkpt lat="43.53186" lon="5.51076">
        <ele>232.19999694824</ele>
        <time>2013-01-17T14:26:29.000Z</time>
      </trkpt>
      <trkpt lat="43.53161" lon="5.51104">
        <ele>239.60000610352</ele>
        <time>2013-01-17T14:29:15.000Z</time>
      </trkpt>
      <trkpt lat="43.53144" lon="5.51131">
        <ele>243.19999694824</ele>
        <time>2013-01-17T14:29:43.000Z</time>
      </trkpt>
      <trkpt lat="43.5315" lon="5.5119">
        <ele>254</ele>
        <time>2013-01-17T14:30:07.000Z</time>
      </trkpt>
      <trkpt lat="43.53138" lon="5.51253">
        <ele>261.20001220703</ele>
        <time>2013-01-17T14:30:31.000Z</time>
      </trkpt>
      <trkpt lat="43.53125" lon="5.51314">
        <ele>267.60000610352</ele>
        <time>2013-01-17T14:30:58.000Z</time>
      </trkpt>
      <trkpt lat="43.53109" lon="5.51373">
        <ele>268</ele>
        <time>2013-01-17T14:31:26.000Z</time>
      </trkpt>
      <trkpt lat="43.5306" lon="5.51375">
        <ele>270.39999389648</ele>
        <time>2013-01-17T14:31:47.000Z</time>
      </trkpt>
      <trkpt lat="43.5301" lon="5.51377">
        <ele>266.60000610352</ele>
        <time>2013-01-17T14:31:55.000Z</time>
      </trkpt>
      <trkpt lat="43.52965" lon="5.51397">
        <ele>267</ele>
        <time>2013-01-17T14:32:01.000Z</time>
      </trkpt>
      <trkpt lat="43.52919" lon="5.5141">
        <ele>270.39999389648</ele>
        <time>2013-01-17T14:32:12.000Z</time>
      </trkpt>
      <trkpt lat="43.52876" lon="5.51438">
        <ele>277.79998779297</ele>
        <time>2013-01-17T14:32:31.000Z</time>
      </trkpt>
      <trkpt lat="43.5283" lon="5.51444">
        <ele>285</ele>
        <time>2013-01-17T14:32:51.000Z</time>
      </trkpt>
      <trkpt lat="43.52785" lon="5.5146">
        <ele>292</ele>
        <time>2013-01-17T14:33:12.000Z</time>
      </trkpt>
      <trkpt lat="43.52742" lon="5.51484">
        <ele>294.20001220703</ele>
        <time>2013-01-17T14:33:35.000Z</time>
      </trkpt>
      <trkpt lat="43.52736" lon="5.51552">
        <ele>294.60000610352</ele>
        <time>2013-01-17T14:34:05.000Z</time>
      </trkpt>
      <trkpt lat="43.52734" lon="5.51624">
        <ele>297.79998779297</ele>
        <time>2013-01-17T14:34:33.000Z</time>
      </trkpt>
      <trkpt lat="43.52732" lon="5.51693">
        <ele>300</ele>
        <time>2013-01-17T14:34:58.000Z</time>
      </trkpt>
      <trkpt lat="43.52722" lon="5.51759">
        <ele>299.39999389648</ele>
        <time>2013-01-17T14:35:18.000Z</time>
      </trkpt>
      <trkpt lat="43.52717" lon="5.51823">
        <ele>304</ele>
        <time>2013-01-17T14:35:35.000Z</time>
      </trkpt>
      <trkpt lat="43.527" lon="5.51881">
        <ele>306</ele>
        <time>2013-01-17T14:35:51.000Z</time>
      </trkpt>
      <trkpt lat="43.52689" lon="5.51941">
        <ele>309.79998779297</ele>
        <time>2013-01-17T14:36:06.000Z</time>
      </trkpt>
      <trkpt lat="43.52694" lon="5.52007">
        <ele>311.20001220703</ele>
        <time>2013-01-17T14:36:20.000Z</time>
      </trkpt>
      <trkpt lat="43.52699" lon="5.52074">
        <ele>310</ele>
        <time>2013-01-17T14:36:33.000Z</time>
      </trkpt>
      <trkpt lat="43.52709" lon="5.5214">
        <ele>311.60000610352</ele>
        <time>2013-01-17T14:36:43.000Z</time>
      </trkpt>
      <trkpt lat="43.52718" lon="5.52206">
        <ele>312.20001220703</ele>
        <time>2013-01-17T14:36:54.000Z</time>
      </trkpt>
      <trkpt lat="43.52737" lon="5.52262">
        <ele>312.79998779297</ele>
        <time>2013-01-17T14:37:05.000Z</time>
      </trkpt>
      <trkpt lat="43.52772" lon="5.52308">
        <ele>310.79998779297</ele>
        <time>2013-01-17T14:37:12.000Z</time>
      </trkpt>
      <trkpt lat="43.52802" lon="5.52358">
        <ele>310.39999389648</ele>
        <time>2013-01-17T14:37:18.000Z</time>
      </trkpt>
      <trkpt lat="43.52826" lon="5.52411">
        <ele>313</ele>
        <time>2013-01-17T14:37:25.000Z</time>
      </trkpt>
      <trkpt lat="43.52811" lon="5.5245">
        <ele>316</ele>
        <time>2013-01-17T14:44:03.000Z</time>
      </trkpt>
      <trkpt lat="43.52772" lon="5.52412">
        <ele>308.79998779297</ele>
        <time>2013-01-17T14:44:14.000Z</time>
      </trkpt>
      <trkpt lat="43.52736" lon="5.52374">
        <ele>306.20001220703</ele>
        <time>2013-01-17T14:44:21.000Z</time>
      </trkpt>
      <trkpt lat="43.52688" lon="5.52379">
        <ele>298.60000610352</ele>
        <time>2013-01-17T14:44:29.000Z</time>
      </trkpt>
      <trkpt lat="43.52638" lon="5.52376">
        <ele>291.39999389648</ele>
        <time>2013-01-17T14:44:36.000Z</time>
      </trkpt>
      <trkpt lat="43.52593" lon="5.5239">
        <ele>284.79998779297</ele>
        <time>2013-01-17T14:44:44.000Z</time>
      </trkpt>
      <trkpt lat="43.52548" lon="5.52407">
        <ele>281</ele>
        <time>2013-01-17T14:44:53.000Z</time>
      </trkpt>
      <trkpt lat="43.52526" lon="5.52466">
        <ele>276</ele>
        <time>2013-01-17T14:45:03.000Z</time>
      </trkpt>
      <trkpt lat="43.52513" lon="5.52529">
        <ele>273.60000610352</ele>
        <time>2013-01-17T14:45:09.000Z</time>
      </trkpt>
      <trkpt lat="43.52495" lon="5.5259">
        <ele>274</ele>
        <time>2013-01-17T14:45:16.000Z</time>
      </trkpt>
      <trkpt lat="43.52464" lon="5.52641">
        <ele>271.39999389648</ele>
        <time>2013-01-17T14:45:26.000Z</time>
      </trkpt>
      <trkpt lat="43.5244" lon="5.52697">
        <ele>264.60000610352</ele>
        <time>2013-01-17T14:45:35.000Z</time>
      </trkpt>
      <trkpt lat="43.52443" lon="5.52768">
        <ele>263.60000610352</ele>
        <time>2013-01-17T14:45:46.000Z</time>
      </trkpt>
      <trkpt lat="43.52442" lon="5.52833">
        <ele>259.79998779297</ele>
        <time>2013-01-17T14:45:55.000Z</time>
      </trkpt>
      <trkpt lat="43.52435" lon="5.52897">
        <ele>260.39999389648</ele>
        <time>2013-01-17T14:46:03.000Z</time>
      </trkpt>
      <trkpt lat="43.52434" lon="5.52956">
        <ele>265</ele>
        <time>2013-01-17T14:46:16.000Z</time>
      </trkpt>
      <trkpt lat="43.52437" lon="5.53019">
        <ele>270.60000610352</ele>
        <time>2013-01-17T14:46:31.000Z</time>
      </trkpt>
      <trkpt lat="43.52444" lon="5.5308">
        <ele>274.20001220703</ele>
        <time>2013-01-17T14:46:48.000Z</time>
      </trkpt>
      <trkpt lat="43.52453" lon="5.53143">
        <ele>276.60000610352</ele>
        <time>2013-01-17T14:47:07.000Z</time>
      </trkpt>
      <trkpt lat="43.52472" lon="5.53201">
        <ele>281.60000610352</ele>
        <time>2013-01-17T14:47:26.000Z</time>
      </trkpt>
      <trkpt lat="43.52487" lon="5.53257">
        <ele>285.79998779297</ele>
        <time>2013-01-17T14:47:47.000Z</time>
      </trkpt>
      <trkpt lat="43.52461" lon="5.53278">
        <ele>282.20001220703</ele>
        <time>2013-01-17T14:48:08.000Z</time>
      </trkpt>
      <trkpt lat="43.52455" lon="5.53344">
        <ele>284.60000610352</ele>
        <time>2013-01-17T14:48:30.000Z</time>
      </trkpt>
      <trkpt lat="43.52445" lon="5.53404">
        <ele>286.20001220703</ele>
        <time>2013-01-17T14:48:52.000Z</time>
      </trkpt>
      <trkpt lat="43.52438" lon="5.53468">
        <ele>289.39999389648</ele>
        <time>2013-01-17T14:49:16.000Z</time>
      </trkpt>
      <trkpt lat="43.52422" lon="5.53529">
        <ele>290.39999389648</ele>
        <time>2013-01-17T14:49:37.000Z</time>
      </trkpt>
      <trkpt lat="43.52416" lon="5.53591">
        <ele>293.20001220703</ele>
        <time>2013-01-17T14:49:57.000Z</time>
      </trkpt>
      <trkpt lat="43.52409" lon="5.53654">
        <ele>295.79998779297</ele>
        <time>2013-01-17T14:50:17.000Z</time>
      </trkpt>
      <trkpt lat="43.52401" lon="5.53715">
        <ele>296</ele>
        <time>2013-01-17T14:50:37.000Z</time>
      </trkpt>
      <trkpt lat="43.52416" lon="5.53774">
        <ele>299.20001220703</ele>
        <time>2013-01-17T14:50:58.000Z</time>
      </trkpt>
      <trkpt lat="43.52423" lon="5.53838">
        <ele>300.20001220703</ele>
        <time>2013-01-17T14:52:07.000Z</time>
      </trkpt>
      <trkpt lat="43.52409" lon="5.539">
        <ele>299.60000610352</ele>
        <time>2013-01-17T14:52:20.000Z</time>
      </trkpt>
      <trkpt lat="43.52411" lon="5.53962">
        <ele>297</ele>
        <time>2013-01-17T14:52:33.000Z</time>
      </trkpt>
      <trkpt lat="43.52413" lon="5.54024">
        <ele>293.39999389648</ele>
        <time>2013-01-17T14:52:51.000Z</time>
      </trkpt>
      <trkpt lat="43.52411" lon="5.54089">
        <ele>290.60000610352</ele>
        <time>2013-01-17T14:53:04.000Z</time>
      </trkpt>
      <trkpt lat="43.52426" lon="5.5415">
        <ele>290.39999389648</ele>
        <time>2013-01-17T14:53:14.000Z</time>
      </trkpt>
      <trkpt lat="43.52439" lon="5.54219">
        <ele>289.39999389648</ele>
        <time>2013-01-17T14:53:22.000Z</time>
      </trkpt>
      <trkpt lat="43.52449" lon="5.54282">
        <ele>287.60000610352</ele>
        <time>2013-01-17T14:53:28.000Z</time>
      </trkpt>
      <trkpt lat="43.52459" lon="5.54342">
        <ele>285.60000610352</ele>
        <time>2013-01-17T14:53:34.000Z</time>
      </trkpt>
      <trkpt lat="43.52473" lon="5.54404">
        <ele>281.60000610352</ele>
        <time>2013-01-17T14:53:40.000Z</time>
      </trkpt>
      <trkpt lat="43.52485" lon="5.5447">
        <ele>276.79998779297</ele>
        <time>2013-01-17T14:53:46.000Z</time>
      </trkpt>
      <trkpt lat="43.52502" lon="5.5453">
        <ele>270.79998779297</ele>
        <time>2013-01-17T14:53:56.000Z</time>
      </trkpt>
      <trkpt lat="43.52516" lon="5.5459">
        <ele>266.79998779297</ele>
        <time>2013-01-17T14:54:05.000Z</time>
      </trkpt>
      <trkpt lat="43.52489" lon="5.54643">
        <ele>263</ele>
        <time>2013-01-17T14:54:12.000Z</time>
      </trkpt>
      <trkpt lat="43.52471" lon="5.54701">
        <ele>262.20001220703</ele>
        <time>2013-01-17T14:54:26.000Z</time>
      </trkpt>
      <trkpt lat="43.52425" lon="5.54739">
        <ele>261</ele>
        <time>2013-01-17T14:54:41.000Z</time>
      </trkpt>
      <trkpt lat="43.52379" lon="5.54765">
        <ele>260.79998779297</ele>
        <time>2013-01-17T14:54:55.000Z</time>
      </trkpt>
      <trkpt lat="43.52336" lon="5.54793">
        <ele>262.60000610352</ele>
        <time>2013-01-17T14:55:10.000Z</time>
      </trkpt>
      <trkpt lat="43.52298" lon="5.54777">
        <ele>261.79998779297</ele>
        <time>2013-01-17T14:55:21.000Z</time>
      </trkpt>
      <trkpt lat="43.52274" lon="5.54721">
        <ele>258.20001220703</ele>
        <time>2013-01-17T14:55:32.000Z</time>
      </trkpt>
      <trkpt lat="43.52239" lon="5.54683">
        <ele>253.60000610352</ele>
        <time>2013-01-17T14:55:42.000Z</time>
      </trkpt>
      <trkpt lat="43.52193" lon="5.54668">
        <ele>250.80000305176</ele>
        <time>2013-01-17T14:55:51.000Z</time>
      </trkpt>
      <trkpt lat="43.52146" lon="5.54676">
        <ele>249.60000610352</ele>
        <time>2013-01-17T14:56:05.000Z</time>
      </trkpt>
      <trkpt lat="43.52129" lon="5.54732">
        <ele>253</ele>
        <time>2013-01-17T14:56:22.000Z</time>
      </trkpt>
      <trkpt lat="43.5215" lon="5.5479">
        <ele>256.79998779297</ele>
        <time>2013-01-17T14:56:48.000Z</time>
      </trkpt>
      <trkpt lat="43.52178" lon="5.54788">
        <ele>259.60000610352</ele>
        <time>2013-01-17T14:57:16.000Z</time>
      </trkpt>
      <trkpt lat="43.5221" lon="5.54758">
        <ele>261</ele>
        <time>2013-01-17T14:57:36.000Z</time>
      </trkpt>
      <trkpt lat="43.5225" lon="5.54782">
        <ele>263.39999389648</ele>
        <time>2013-01-17T14:57:54.000Z</time>
      </trkpt>
      <trkpt lat="43.52277" lon="5.54833">
        <ele>266.20001220703</ele>
        <time>2013-01-17T14:58:11.000Z</time>
      </trkpt>
      <trkpt lat="43.52309" lon="5.54878">
        <ele>273</ele>
        <time>2013-01-17T14:58:36.000Z</time>
      </trkpt>
      <trkpt lat="43.52346" lon="5.5491">
        <ele>281.79998779297</ele>
        <time>2013-01-17T14:59:02.000Z</time>
      </trkpt>
      <trkpt lat="43.52368" lon="5.54962">
        <ele>287.60000610352</ele>
        <time>2013-01-17T14:59:24.000Z</time>
      </trkpt>
      <trkpt lat="43.52407" lon="5.54997">
        <ele>295.20001220703</ele>
        <time>2013-01-17T14:59:46.000Z</time>
      </trkpt>
      <trkpt lat="43.52424" lon="5.55055">
        <ele>298</ele>
        <time>2013-01-17T15:00:11.000Z</time>
      </trkpt>
      <trkpt lat="43.52451" lon="5.55107">
        <ele>305.60000610352</ele>
        <time>2013-01-17T15:00:36.000Z</time>
      </trkpt>
      <trkpt lat="43.52469" lon="5.55166">
        <ele>312</ele>
        <time>2013-01-17T15:01:00.000Z</time>
      </trkpt>
      <trkpt lat="43.52486" lon="5.55227">
        <ele>318.39999389648</ele>
        <time>2013-01-17T15:01:24.000Z</time>
      </trkpt>
      <trkpt lat="43.52506" lon="5.55286">
        <ele>322.60000610352</ele>
        <time>2013-01-17T15:01:45.000Z</time>
      </trkpt>
      <trkpt lat="43.52519" lon="5.55348">
        <ele>322.60000610352</ele>
        <time>2013-01-17T15:02:01.000Z</time>
      </trkpt>
      <trkpt lat="43.52535" lon="5.55408">
        <ele>325.79998779297</ele>
        <time>2013-01-17T15:02:16.000Z</time>
      </trkpt>
      <trkpt lat="43.5255" lon="5.55468">
        <ele>329</ele>
        <time>2013-01-17T15:02:31.000Z</time>
      </trkpt>
      <trkpt lat="43.52566" lon="5.55528">
        <ele>332</ele>
        <time>2013-01-17T15:02:47.000Z</time>
      </trkpt>
      <trkpt lat="43.52586" lon="5.55587">
        <ele>334.39999389648</ele>
        <time>2013-01-17T15:03:03.000Z</time>
      </trkpt>
      <trkpt lat="43.52611" lon="5.55639">
        <ele>334.79998779297</ele>
        <time>2013-01-17T15:03:25.000Z</time>
      </trkpt>
      <trkpt lat="43.52643" lon="5.55683">
        <ele>338.79998779297</ele>
        <time>2013-01-17T15:03:47.000Z</time>
      </trkpt>
      <trkpt lat="43.52667" lon="5.55635">
        <ele>349.60000610352</ele>
        <time>2013-01-17T15:04:09.000Z</time>
      </trkpt>
      <trkpt lat="43.52674" lon="5.55573">
        <ele>354.39999389648</ele>
        <time>2013-01-17T15:04:30.000Z</time>
      </trkpt>
      <trkpt lat="43.52703" lon="5.55529">
        <ele>355</ele>
        <time>2013-01-17T15:04:48.000Z</time>
      </trkpt>
      <trkpt lat="43.52744" lon="5.5555">
        <ele>353.60000610352</ele>
        <time>2013-01-17T15:05:05.000Z</time>
      </trkpt>
      <trkpt lat="43.52767" lon="5.55586">
        <ele>351.60000610352</ele>
        <time>2013-01-17T15:10:35.000Z</time>
      </trkpt>
      <trkpt lat="43.52765" lon="5.5565">
        <ele>353.79998779297</ele>
        <time>2013-01-17T15:10:59.000Z</time>
      </trkpt>
      <trkpt lat="43.52779" lon="5.55707">
        <ele>351.60000610352</ele>
        <time>2013-01-17T15:11:22.000Z</time>
      </trkpt>
      <trkpt lat="43.528" lon="5.55765">
        <ele>351.60000610352</ele>
        <time>2013-01-17T15:11:36.000Z</time>
      </trkpt>
      <trkpt lat="43.52811" lon="5.5583">
        <ele>356</ele>
        <time>2013-01-17T15:11:47.000Z</time>
      </trkpt>
      <trkpt lat="43.52831" lon="5.55891">
        <ele>361.60000610352</ele>
        <time>2013-01-17T15:11:56.000Z</time>
      </trkpt>
      <trkpt lat="43.5286" lon="5.55947">
        <ele>364.60000610352</ele>
        <time>2013-01-17T15:12:04.000Z</time>
      </trkpt>
      <trkpt lat="43.52881" lon="5.56003">
        <ele>365.79998779297</ele>
        <time>2013-01-17T15:12:14.000Z</time>
      </trkpt>
      <trkpt lat="43.52916" lon="5.56037">
        <ele>364.60000610352</ele>
        <time>2013-01-17T15:12:23.000Z</time>
      </trkpt>
      <trkpt lat="43.52934" lon="5.56001">
        <ele>357.79998779297</ele>
        <time>2013-01-17T15:12:33.000Z</time>
      </trkpt>
      <trkpt lat="43.52917" lon="5.55944">
        <ele>360.20001220703</ele>
        <time>2013-01-17T15:12:40.000Z</time>
      </trkpt>
      <trkpt lat="43.52902" lon="5.55875">
        <ele>358.79998779297</ele>
        <time>2013-01-17T15:12:47.000Z</time>
      </trkpt>
      <trkpt lat="43.52895" lon="5.55802">
        <ele>354.79998779297</ele>
        <time>2013-01-17T15:12:53.000Z</time>
      </trkpt>
      <trkpt lat="43.52886" lon="5.5574">
        <ele>350.39999389648</ele>
        <time>2013-01-17T15:12:58.000Z</time>
      </trkpt>
      <trkpt lat="43.52874" lon="5.5567">
        <ele>346.39999389648</ele>
        <time>2013-01-17T15:13:04.000Z</time>
      </trkpt>
      <trkpt lat="43.52862" lon="5.55607">
        <ele>344</ele>
        <time>2013-01-17T15:13:11.000Z</time>
      </trkpt>
      <trkpt lat="43.52866" lon="5.5554">
        <ele>341.60000610352</ele>
        <time>2013-01-17T15:13:18.000Z</time>
      </trkpt>
      <trkpt lat="43.5287" lon="5.55474">
        <ele>336.79998779297</ele>
        <time>2013-01-17T15:13:25.000Z</time>
      </trkpt>
      <trkpt lat="43.52861" lon="5.55408">
        <ele>327.60000610352</ele>
        <time>2013-01-17T15:13:32.000Z</time>
      </trkpt>
      <trkpt lat="43.52844" lon="5.5534">
        <ele>322</ele>
        <time>2013-01-17T15:13:38.000Z</time>
      </trkpt>
      <trkpt lat="43.52819" lon="5.55286">
        <ele>319.39999389648</ele>
        <time>2013-01-17T15:13:43.000Z</time>
      </trkpt>
      <trkpt lat="43.52805" lon="5.55217">
        <ele>312.79998779297</ele>
        <time>2013-01-17T15:13:49.000Z</time>
      </trkpt>
      <trkpt lat="43.52791" lon="5.5515">
        <ele>304.20001220703</ele>
        <time>2013-01-17T15:13:54.000Z</time>
      </trkpt>
      <trkpt lat="43.52773" lon="5.55077">
        <ele>292.79998779297</ele>
        <time>2013-01-17T15:13:59.000Z</time>
      </trkpt>
      <trkpt lat="43.52755" lon="5.55016">
        <ele>287</ele>
        <time>2013-01-17T15:14:04.000Z</time>
      </trkpt>
      <trkpt lat="43.52732" lon="5.54951">
        <ele>281.79998779297</ele>
        <time>2013-01-17T15:14:10.000Z</time>
      </trkpt>
      <trkpt lat="43.52725" lon="5.54887">
        <ele>276</ele>
        <time>2013-01-17T15:14:15.000Z</time>
      </trkpt>
      <trkpt lat="43.52731" lon="5.54826">
        <ele>272.60000610352</ele>
        <time>2013-01-17T15:14:22.000Z</time>
      </trkpt>
      <trkpt lat="43.52772" lon="5.54809">
        <ele>274.20001220703</ele>
        <time>2013-01-17T15:14:38.000Z</time>
      </trkpt>
      <trkpt lat="43.52817" lon="5.54825">
        <ele>273.20001220703</ele>
        <time>2013-01-17T15:15:03.000Z</time>
      </trkpt>
      <trkpt lat="43.52849" lon="5.54871">
        <ele>275.60000610352</ele>
        <time>2013-01-17T15:15:15.000Z</time>
      </trkpt>
      <trkpt lat="43.52885" lon="5.54909">
        <ele>275</ele>
        <time>2013-01-17T15:15:28.000Z</time>
      </trkpt>
      <trkpt lat="43.52922" lon="5.54944">
        <ele>273.39999389648</ele>
        <time>2013-01-17T15:15:42.000Z</time>
      </trkpt>
      <trkpt lat="43.5296" lon="5.54945">
        <ele>276.39999389648</ele>
        <time>2013-01-17T15:15:57.000Z</time>
      </trkpt>
      <trkpt lat="43.53004" lon="5.54936">
        <ele>280.60000610352</ele>
        <time>2013-01-17T15:16:12.000Z</time>
      </trkpt>
      <trkpt lat="43.53023" lon="5.54883">
        <ele>284.60000610352</ele>
        <time>2013-01-17T15:16:31.000Z</time>
      </trkpt>
      <trkpt lat="43.53061" lon="5.54837">
        <ele>289.39999389648</ele>
        <time>2013-01-17T15:16:59.000Z</time>
      </trkpt>
      <trkpt lat="43.53109" lon="5.54817">
        <ele>297.60000610352</ele>
        <time>2013-01-17T15:17:30.000Z</time>
      </trkpt>
      <trkpt lat="43.53155" lon="5.54801">
        <ele>304</ele>
        <time>2013-01-17T15:18:07.000Z</time>
      </trkpt>
      <trkpt lat="43.53198" lon="5.54793">
        <ele>307.60000610352</ele>
        <time>2013-01-17T15:18:44.000Z</time>
      </trkpt>
      <trkpt lat="43.53203" lon="5.54734">
        <ele>316.20001220703</ele>
        <time>2013-01-17T15:19:18.000Z</time>
      </trkpt>
      <trkpt lat="43.53189" lon="5.54677">
        <ele>324.39999389648</ele>
        <time>2013-01-17T15:19:46.000Z</time>
      </trkpt>
      <trkpt lat="43.53187" lon="5.54613">
        <ele>333.79998779297</ele>
        <time>2013-01-17T15:20:13.000Z</time>
      </trkpt>
      <trkpt lat="43.53183" lon="5.54549">
        <ele>340</ele>
        <time>2013-01-17T15:20:38.000Z</time>
      </trkpt>
      <trkpt lat="43.53175" lon="5.54485">
        <ele>342.79998779297</ele>
        <time>2013-01-17T15:21:04.000Z</time>
      </trkpt>
      <trkpt lat="43.532" lon="5.54436">
        <ele>345</ele>
        <time>2013-01-17T15:21:19.000Z</time>
      </trkpt>
      <trkpt lat="43.53235" lon="5.54395">
        <ele>347.39999389648</ele>
        <time>2013-01-17T15:21:41.000Z</time>
      </trkpt>
      <trkpt lat="43.53269" lon="5.54353">
        <ele>352.20001220703</ele>
        <time>2013-01-17T15:22:02.000Z</time>
      </trkpt>
      <trkpt lat="43.53286" lon="5.54294">
        <ele>358.39999389648</ele>
        <time>2013-01-17T15:22:26.000Z</time>
      </trkpt>
      <trkpt lat="43.53308" lon="5.54241">
        <ele>364</ele>
        <time>2013-01-17T15:22:51.000Z</time>
      </trkpt>
      <trkpt lat="43.53343" lon="5.54206">
        <ele>368</ele>
        <time>2013-01-17T15:23:18.000Z</time>
      </trkpt>
      <trkpt lat="43.53349" lon="5.54148">
        <ele>365.60000610352</ele>
        <time>2013-01-17T15:28:13.000Z</time>
      </trkpt>
      <trkpt lat="43.53368" lon="5.54096">
        <ele>366.60000610352</ele>
        <time>2013-01-17T15:28:36.000Z</time>
      </trkpt>
      <trkpt lat="43.53413" lon="5.5408">
        <ele>377.39999389648</ele>
        <time>2013-01-17T15:28:58.000Z</time>
      </trkpt>
      <trkpt lat="43.53441" lon="5.54032">
        <ele>377.60000610352</ele>
        <time>2013-01-17T15:29:21.000Z</time>
      </trkpt>
      <trkpt lat="43.53467" lon="5.53978">
        <ele>377</ele>
        <time>2013-01-17T15:29:38.000Z</time>
      </trkpt>
      <trkpt lat="43.53507" lon="5.53943">
        <ele>377.39999389648</ele>
        <time>2013-01-17T15:29:56.000Z</time>
      </trkpt>
      <trkpt lat="43.53552" lon="5.53926">
        <ele>378</ele>
        <time>2013-01-17T15:30:10.000Z</time>
      </trkpt>
      <trkpt lat="43.53595" lon="5.53903">
        <ele>378.79998779297</ele>
        <time>2013-01-17T15:30:24.000Z</time>
      </trkpt>
      <trkpt lat="43.53642" lon="5.53904">
        <ele>381</ele>
        <time>2013-01-17T15:30:38.000Z</time>
      </trkpt>
      <trkpt lat="43.53687" lon="5.53901">
        <ele>381</ele>
        <time>2013-01-17T15:30:51.000Z</time>
      </trkpt>
      <trkpt lat="43.53732" lon="5.53903">
        <ele>379.20001220703</ele>
        <time>2013-01-17T15:31:02.000Z</time>
      </trkpt>
      <trkpt lat="43.53776" lon="5.53889">
        <ele>373.39999389648</ele>
        <time>2013-01-17T15:31:13.000Z</time>
      </trkpt>
      <trkpt lat="43.53797" lon="5.53829">
        <ele>372.60000610352</ele>
        <time>2013-01-17T15:31:24.000Z</time>
      </trkpt>
      <trkpt lat="43.53828" lon="5.53788">
        <ele>372.79998779297</ele>
        <time>2013-01-17T15:31:38.000Z</time>
      </trkpt>
      <trkpt lat="43.53852" lon="5.53735">
        <ele>370.39999389648</ele>
        <time>2013-01-17T15:31:49.000Z</time>
      </trkpt>
      <trkpt lat="43.53839" lon="5.53671">
        <ele>370.20001220703</ele>
        <time>2013-01-17T15:31:59.000Z</time>
      </trkpt>
      <trkpt lat="43.53817" lon="5.53628">
        <ele>369.20001220703</ele>
        <time>2013-01-17T15:32:12.000Z</time>
      </trkpt>
      <trkpt lat="43.53852" lon="5.53584">
        <ele>362.60000610352</ele>
        <time>2013-01-17T15:32:23.000Z</time>
      </trkpt>
      <trkpt lat="43.53894" lon="5.53562">
        <ele>353</ele>
        <time>2013-01-17T15:32:30.000Z</time>
      </trkpt>
      <trkpt lat="43.53931" lon="5.53591">
        <ele>345</ele>
        <time>2013-01-17T15:32:38.000Z</time>
      </trkpt>
      <trkpt lat="43.53976" lon="5.53629">
        <ele>331.39999389648</ele>
        <time>2013-01-17T15:32:45.000Z</time>
      </trkpt>
      <trkpt lat="43.54022" lon="5.53651">
        <ele>323.79998779297</ele>
        <time>2013-01-17T15:32:53.000Z</time>
      </trkpt>
      <trkpt lat="43.54067" lon="5.53649">
        <ele>319.39999389648</ele>
        <time>2013-01-17T15:33:02.000Z</time>
      </trkpt>
      <trkpt lat="43.54107" lon="5.53624">
        <ele>322.39999389648</ele>
        <time>2013-01-17T15:33:11.000Z</time>
      </trkpt>
      <trkpt lat="43.54143" lon="5.53579">
        <ele>334</ele>
        <time>2013-01-17T15:33:21.000Z</time>
      </trkpt>
      <trkpt lat="43.54151" lon="5.53522">
        <ele>342.20001220703</ele>
        <time>2013-01-17T15:33:32.000Z</time>
      </trkpt>
      <trkpt lat="43.54138" lon="5.53461">
        <ele>339.60000610352</ele>
        <time>2013-01-17T15:33:45.000Z</time>
      </trkpt>
      <trkpt lat="43.54155" lon="5.53403">
        <ele>348.79998779297</ele>
        <time>2013-01-17T15:33:58.000Z</time>
      </trkpt>
      <trkpt lat="43.54169" lon="5.53343">
        <ele>352.60000610352</ele>
        <time>2013-01-17T15:34:18.000Z</time>
      </trkpt>
      <trkpt lat="43.54207" lon="5.53326">
        <ele>360</ele>
        <time>2013-01-17T15:34:40.000Z</time>
      </trkpt>
      <trkpt lat="43.54256" lon="5.53342">
        <ele>367.20001220703</ele>
        <time>2013-01-17T15:35:08.000Z</time>
      </trkpt>
      <trkpt lat="43.543" lon="5.5332">
        <ele>374.60000610352</ele>
        <time>2013-01-17T15:35:33.000Z</time>
      </trkpt>
      <trkpt lat="43.54352" lon="5.53331">
        <ele>379.79998779297</ele>
        <time>2013-01-17T15:35:56.000Z</time>
      </trkpt>
      <trkpt lat="43.54394" lon="5.53371">
        <ele>379.20001220703</ele>
        <time>2013-01-17T15:36:19.000Z</time>
      </trkpt>
      <trkpt lat="43.54432" lon="5.53411">
        <ele>382</ele>
        <time>2013-01-17T15:36:38.000Z</time>
      </trkpt>
      <trkpt lat="43.54476" lon="5.53439">
        <ele>382</ele>
        <time>2013-01-17T15:36:57.000Z</time>
      </trkpt>
      <trkpt lat="43.54523" lon="5.53447">
        <ele>383.39999389648</ele>
        <time>2013-01-17T15:37:13.000Z</time>
      </trkpt>
      <trkpt lat="43.54569" lon="5.53457">
        <ele>384</ele>
        <time>2013-01-17T15:37:26.000Z</time>
      </trkpt>
      <trkpt lat="43.54611" lon="5.5348">
        <ele>383.79998779297</ele>
        <time>2013-01-17T15:37:39.000Z</time>
      </trkpt>
      <trkpt lat="43.54658" lon="5.53479">
        <ele>386.60000610352</ele>
        <time>2013-01-17T15:37:55.000Z</time>
      </trkpt>
      <trkpt lat="43.54706" lon="5.53489">
        <ele>385</ele>
        <time>2013-01-17T15:38:08.000Z</time>
      </trkpt>
      <trkpt lat="43.54752" lon="5.53499">
        <ele>381.60000610352</ele>
        <time>2013-01-17T15:38:19.000Z</time>
      </trkpt>
      <trkpt lat="43.54794" lon="5.53463">
        <ele>377.60000610352</ele>
        <time>2013-01-17T15:38:29.000Z</time>
      </trkpt>
      <trkpt lat="43.5483" lon="5.53417">
        <ele>377.39999389648</ele>
        <time>2013-01-17T15:38:37.000Z</time>
      </trkpt>
      <trkpt lat="43.54861" lon="5.53366">
        <ele>377.79998779297</ele>
        <time>2013-01-17T15:38:45.000Z</time>
      </trkpt>
      <trkpt lat="43.54876" lon="5.53299">
        <ele>379.79998779297</ele>
        <time>2013-01-17T15:38:54.000Z</time>
      </trkpt>
      <trkpt lat="43.54906" lon="5.53244">
        <ele>374.60000610352</ele>
        <time>2013-01-17T15:39:03.000Z</time>
      </trkpt>
      <trkpt lat="43.54934" lon="5.53189">
        <ele>376.79998779297</ele>
        <time>2013-01-17T15:39:12.000Z</time>
      </trkpt>
      <trkpt lat="43.54949" lon="5.53127">
        <ele>377.20001220703</ele>
        <time>2013-01-17T15:39:22.000Z</time>
      </trkpt>
      <trkpt lat="43.54955" lon="5.53063">
        <ele>376.79998779297</ele>
        <time>2013-01-17T15:39:33.000Z</time>
      </trkpt>
      <trkpt lat="43.54952" lon="5.53">
        <ele>377</ele>
        <time>2013-01-17T15:39:48.000Z</time>
      </trkpt>
      <trkpt lat="43.54939" lon="5.52935">
        <ele>376.79998779297</ele>
        <time>2013-01-17T15:40:00.000Z</time>
      </trkpt>
      <trkpt lat="43.54928" lon="5.52871">
        <ele>376.39999389648</ele>
        <time>2013-01-17T15:40:12.000Z</time>
      </trkpt>
      <trkpt lat="43.54916" lon="5.52806">
        <ele>376</ele>
        <time>2013-01-17T15:40:24.000Z</time>
      </trkpt>
      <trkpt lat="43.54904" lon="5.52744">
        <ele>379.20001220703</ele>
        <time>2013-01-17T15:40:36.000Z</time>
      </trkpt>
      <trkpt lat="43.54892" lon="5.52679">
        <ele>381.60000610352</ele>
        <time>2013-01-17T15:40:48.000Z</time>
      </trkpt>
      <trkpt lat="43.54879" lon="5.52616">
        <ele>386.39999389648</ele>
        <time>2013-01-17T15:41:00.000Z</time>
      </trkpt>
      <trkpt lat="43.54867" lon="5.52556">
        <ele>389.60000610352</ele>
        <time>2013-01-17T15:41:12.000Z</time>
      </trkpt>
      <trkpt lat="43.54856" lon="5.52491">
        <ele>390.60000610352</ele>
        <time>2013-01-17T15:41:26.000Z</time>
      </trkpt>
      <trkpt lat="43.54848" lon="5.52432">
        <ele>391</ele>
        <time>2013-01-17T15:41:41.000Z</time>
      </trkpt>
      <trkpt lat="43.54887" lon="5.52401">
        <ele>391.20001220703</ele>
        <time>2013-01-17T15:42:01.000Z</time>
      </trkpt>
      <trkpt lat="43.54907" lon="5.52346">
        <ele>392.39999389648</ele>
        <time>2013-01-17T15:42:24.000Z</time>
      </trkpt>
      <trkpt lat="43.54949" lon="5.52327">
        <ele>396.39999389648</ele>
        <time>2013-01-17T15:42:49.000Z</time>
      </trkpt>
      <trkpt lat="43.54982" lon="5.52371">
        <ele>399</ele>
        <time>2013-01-17T15:43:09.000Z</time>
      </trkpt>
      <trkpt lat="43.55025" lon="5.52354">
        <ele>403.20001220703</ele>
        <time>2013-01-17T15:43:32.000Z</time>
      </trkpt>
      <trkpt lat="43.55071" lon="5.52358">
        <ele>407.20001220703</ele>
        <time>2013-01-17T15:43:52.000Z</time>
      </trkpt>
      <trkpt lat="43.55109" lon="5.52399">
        <ele>409.39999389648</ele>
        <time>2013-01-17T15:44:16.000Z</time>
      </trkpt>
      <trkpt lat="43.55129" lon="5.52354">
        <ele>413.60000610352</ele>
        <time>2013-01-17T15:44:46.000Z</time>
      </trkpt>
      <trkpt lat="43.5512" lon="5.52285">
        <ele>414.39999389648</ele>
        <time>2013-01-17T15:45:09.000Z</time>
      </trkpt>
      <trkpt lat="43.55109" lon="5.52221">
        <ele>415.20001220703</ele>
        <time>2013-01-17T15:45:30.000Z</time>
      </trkpt>
      <trkpt lat="43.5511" lon="5.52162">
        <ele>416.39999389648</ele>
        <time>2013-01-17T15:45:50.000Z</time>
      </trkpt>
      <trkpt lat="43.55142" lon="5.52113">
        <ele>419.39999389648</ele>
        <time>2013-01-17T15:46:17.000Z</time>
      </trkpt>
      <trkpt lat="43.55193" lon="5.521">
        <ele>423.39999389648</ele>
        <time>2013-01-17T15:46:40.000Z</time>
      </trkpt>
      <trkpt lat="43.55242" lon="5.52082">
        <ele>428.20001220703</ele>
        <time>2013-01-17T15:47:03.000Z</time>
      </trkpt>
      <trkpt lat="43.55291" lon="5.52054">
        <ele>433.60000610352</ele>
        <time>2013-01-17T15:47:30.000Z</time>
      </trkpt>
      <trkpt lat="43.5528" lon="5.51988">
        <ele>436</ele>
        <time>2013-01-17T15:47:57.000Z</time>
      </trkpt>
      <trkpt lat="43.55303" lon="5.51971">
        <ele>438.60000610352</ele>
        <time>2013-01-17T15:48:27.000Z</time>
      </trkpt>
      <trkpt lat="43.55351" lon="5.51987">
        <ele>442</ele>
        <time>2013-01-17T15:48:51.000Z</time>
      </trkpt>
      <trkpt lat="43.55364" lon="5.51953">
        <ele>443.39999389648</ele>
        <time>2013-01-17T15:49:19.000Z</time>
      </trkpt>
      <trkpt lat="43.55345" lon="5.51895">
        <ele>443.20001220703</ele>
        <time>2013-01-17T15:51:52.000Z</time>
      </trkpt>
      <trkpt lat="43.55334" lon="5.51833">
        <ele>442.79998779297</ele>
        <time>2013-01-17T15:52:08.000Z</time>
      </trkpt>
      <trkpt lat="43.55323" lon="5.51773">
        <ele>440.20001220703</ele>
        <time>2013-01-17T15:52:19.000Z</time>
      </trkpt>
      <trkpt lat="43.55329" lon="5.51712">
        <ele>440</ele>
        <time>2013-01-17T15:52:29.000Z</time>
      </trkpt>
      <trkpt lat="43.55361" lon="5.51663">
        <ele>440.60000610352</ele>
        <time>2013-01-17T15:52:40.000Z</time>
      </trkpt>
      <trkpt lat="43.55387" lon="5.51604">
        <ele>441.39999389648</ele>
        <time>2013-01-17T15:52:50.000Z</time>
      </trkpt>
      <trkpt lat="43.55399" lon="5.51544">
        <ele>440.39999389648</ele>
        <time>2013-01-17T15:52:59.000Z</time>
      </trkpt>
      <trkpt lat="43.55395" lon="5.51484">
        <ele>438.79998779297</ele>
        <time>2013-01-17T15:53:09.000Z</time>
      </trkpt>
      <trkpt lat="43.55381" lon="5.5142">
        <ele>437.39999389648</ele>
        <time>2013-01-17T15:53:19.000Z</time>
      </trkpt>
      <trkpt lat="43.5537" lon="5.51355">
        <ele>437.20001220703</ele>
        <time>2013-01-17T15:53:30.000Z</time>
      </trkpt>
      <trkpt lat="43.55364" lon="5.51293">
        <ele>437.39999389648</ele>
        <time>2013-01-17T15:53:40.000Z</time>
      </trkpt>
      <trkpt lat="43.55355" lon="5.51233">
        <ele>437.39999389648</ele>
        <time>2013-01-17T15:53:50.000Z</time>
      </trkpt>
      <trkpt lat="43.55352" lon="5.51165">
        <ele>436.60000610352</ele>
        <time>2013-01-17T15:54:01.000Z</time>
      </trkpt>
      <trkpt lat="43.55352" lon="5.51098">
        <ele>436</ele>
        <time>2013-01-17T15:54:12.000Z</time>
      </trkpt>
      <trkpt lat="43.55351" lon="5.51033">
        <ele>435.20001220703</ele>
        <time>2013-01-17T15:54:23.000Z</time>
      </trkpt>
      <trkpt lat="43.55341" lon="5.50967">
        <ele>433</ele>
        <time>2013-01-17T15:54:34.000Z</time>
      </trkpt>
      <trkpt lat="43.55336" lon="5.50903">
        <ele>430</ele>
        <time>2013-01-17T15:54:45.000Z</time>
      </trkpt>
      <trkpt lat="43.55349" lon="5.50836">
        <ele>430</ele>
        <time>2013-01-17T15:54:56.000Z</time>
      </trkpt>
      <trkpt lat="43.55367" lon="5.50772">
        <ele>429.20001220703</ele>
        <time>2013-01-17T15:55:05.000Z</time>
      </trkpt>
      <trkpt lat="43.55393" lon="5.50715">
        <ele>428.39999389648</ele>
        <time>2013-01-17T15:55:14.000Z</time>
      </trkpt>
      <trkpt lat="43.55407" lon="5.50651">
        <ele>427.20001220703</ele>
        <time>2013-01-17T15:55:23.000Z</time>
      </trkpt>
      <trkpt lat="43.55424" lon="5.50594">
        <ele>425.60000610352</ele>
        <time>2013-01-17T15:55:31.000Z</time>
      </trkpt>
      <trkpt lat="43.5546" lon="5.50546">
        <ele>425.60000610352</ele>
        <time>2013-01-17T15:55:40.000Z</time>
      </trkpt>
      <trkpt lat="43.55493" lon="5.50505">
        <ele>425.79998779297</ele>
        <time>2013-01-17T15:55:50.000Z</time>
      </trkpt>
      <trkpt lat="43.55537" lon="5.5049">
        <ele>426.20001220703</ele>
        <time>2013-01-17T15:56:03.000Z</time>
      </trkpt>
      <trkpt lat="43.55574" lon="5.50458">
        <ele>426.20001220703</ele>
        <time>2013-01-17T15:56:16.000Z</time>
      </trkpt>
      <trkpt lat="43.55602" lon="5.50404">
        <ele>426</ele>
        <time>2013-01-17T15:56:29.000Z</time>
      </trkpt>
      <trkpt lat="43.5563" lon="5.50351">
        <ele>425.60000610352</ele>
        <time>2013-01-17T15:56:42.000Z</time>
      </trkpt>
      <trkpt lat="43.55647" lon="5.50296">
        <ele>425.39999389648</ele>
        <time>2013-01-17T15:56:53.000Z</time>
      </trkpt>
      <trkpt lat="43.55638" lon="5.50233">
        <ele>424.60000610352</ele>
        <time>2013-01-17T15:57:03.000Z</time>
      </trkpt>
      <trkpt lat="43.55655" lon="5.5017">
        <ele>423.79998779297</ele>
        <time>2013-01-17T15:57:13.000Z</time>
      </trkpt>
      <trkpt lat="43.55676" lon="5.50113">
        <ele>423.79998779297</ele>
        <time>2013-01-17T15:57:23.000Z</time>
      </trkpt>
      <trkpt lat="43.55704" lon="5.50058">
        <ele>424.20001220703</ele>
        <time>2013-01-17T15:57:34.000Z</time>
      </trkpt>
      <trkpt lat="43.55735" lon="5.50012">
        <ele>425.20001220703</ele>
        <time>2013-01-17T15:57:45.000Z</time>
      </trkpt>
      <trkpt lat="43.55756" lon="5.49955">
        <ele>424.20001220703</ele>
        <time>2013-01-17T15:57:55.000Z</time>
      </trkpt>
      <trkpt lat="43.55802" lon="5.49935">
        <ele>426.79998779297</ele>
        <time>2013-01-17T15:58:07.000Z</time>
      </trkpt>
      <trkpt lat="43.55843" lon="5.49912">
        <ele>427.79998779297</ele>
        <time>2013-01-17T15:58:18.000Z</time>
      </trkpt>
      <trkpt lat="43.55892" lon="5.49909">
        <ele>428.79998779297</ele>
        <time>2013-01-17T15:58:30.000Z</time>
      </trkpt>
      <trkpt lat="43.55936" lon="5.49932">
        <ele>430.60000610352</ele>
        <time>2013-01-17T15:58:42.000Z</time>
      </trkpt>
      <trkpt lat="43.55984" lon="5.49941">
        <ele>431.20001220703</ele>
        <time>2013-01-17T15:58:55.000Z</time>
      </trkpt>
      <trkpt lat="43.56029" lon="5.49932">
        <ele>430.60000610352</ele>
        <time>2013-01-17T15:59:08.000Z</time>
      </trkpt>
      <trkpt lat="43.56076" lon="5.49928">
        <ele>430</ele>
        <time>2013-01-17T15:59:19.000Z</time>
      </trkpt>
      <trkpt lat="43.56121" lon="5.49903">
        <ele>429.20001220703</ele>
        <time>2013-01-17T15:59:30.000Z</time>
      </trkpt>
      <trkpt lat="43.56159" lon="5.49865">
        <ele>428.39999389648</ele>
        <time>2013-01-17T15:59:41.000Z</time>
      </trkpt>
      <trkpt lat="43.56199" lon="5.49838">
        <ele>428.60000610352</ele>
        <time>2013-01-17T15:59:52.000Z</time>
      </trkpt>
      <trkpt lat="43.56236" lon="5.49793">
        <ele>428.79998779297</ele>
        <time>2013-01-17T16:00:04.000Z</time>
      </trkpt>
      <trkpt lat="43.56257" lon="5.49738">
        <ele>429.60000610352</ele>
        <time>2013-01-17T16:00:15.000Z</time>
      </trkpt>
      <trkpt lat="43.56278" lon="5.49677">
        <ele>428.20001220703</ele>
        <time>2013-01-17T16:00:25.000Z</time>
      </trkpt>
      <trkpt lat="43.56295" lon="5.49617">
        <ele>426.79998779297</ele>
        <time>2013-01-17T16:00:34.000Z</time>
      </trkpt>
      <trkpt lat="43.56338" lon="5.49606">
        <ele>430.60000610352</ele>
        <time>2013-01-17T16:00:44.000Z</time>
      </trkpt>
      <trkpt lat="43.56385" lon="5.49593">
        <ele>429.79998779297</ele>
        <time>2013-01-17T16:00:54.000Z</time>
      </trkpt>
      <trkpt lat="43.56433" lon="5.49575">
        <ele>430</ele>
        <time>2013-01-17T16:01:04.000Z</time>
      </trkpt>
      <trkpt lat="43.56477" lon="5.4956">
        <ele>430</ele>
        <time>2013-01-17T16:01:16.000Z</time>
      </trkpt>
      <trkpt lat="43.56524" lon="5.49568">
        <ele>427.20001220703</ele>
        <time>2013-01-17T16:01:31.000Z</time>
      </trkpt>
      <trkpt lat="43.56568" lon="5.49585">
        <ele>424.60000610352</ele>
        <time>2013-01-17T16:01:40.000Z</time>
      </trkpt>
      <trkpt lat="43.56613" lon="5.49603">
        <ele>422.20001220703</ele>
        <time>2013-01-17T16:01:49.000Z</time>
      </trkpt>
      <trkpt lat="43.56657" lon="5.49624">
        <ele>421</ele>
        <time>2013-01-17T16:02:00.000Z</time>
      </trkpt>
      <trkpt lat="43.56701" lon="5.49649">
        <ele>418.20001220703</ele>
        <time>2013-01-17T16:02:09.000Z</time>
      </trkpt>
      <trkpt lat="43.5673" lon="5.49687">
        <ele>416.20001220703</ele>
        <time>2013-01-17T16:02:24.000Z</time>
      </trkpt>
      <trkpt lat="43.56731" lon="5.49749">
        <ele>415.60000610352</ele>
        <time>2013-01-17T16:02:35.000Z</time>
      </trkpt>
      <trkpt lat="43.56761" lon="5.49799">
        <ele>410.79998779297</ele>
        <time>2013-01-17T16:02:41.000Z</time>
      </trkpt>
      <trkpt lat="43.56779" lon="5.49859">
        <ele>405</ele>
        <time>2013-01-17T16:02:48.000Z</time>
      </trkpt>
      <trkpt lat="43.5681" lon="5.49907">
        <ele>400.60000610352</ele>
        <time>2013-01-17T16:02:56.000Z</time>
      </trkpt>
      <trkpt lat="43.56854" lon="5.49939">
        <ele>398</ele>
        <time>2013-01-17T16:03:04.000Z</time>
      </trkpt>
      <trkpt lat="43.56898" lon="5.49961">
        <ele>395.39999389648</ele>
        <time>2013-01-17T16:03:13.000Z</time>
      </trkpt>
      <trkpt lat="43.56934" lon="5.49999">
        <ele>393.20001220703</ele>
        <time>2013-01-17T16:03:21.000Z</time>
      </trkpt>
      <trkpt lat="43.5698" lon="5.50002">
        <ele>388.79998779297</ele>
        <time>2013-01-17T16:03:28.000Z</time>
      </trkpt>
      <trkpt lat="43.57002" lon="5.50051">
        <ele>384.79998779297</ele>
        <time>2013-01-17T16:03:39.000Z</time>
      </trkpt>
      <trkpt lat="43.57024" lon="5.5006">
        <ele>382.20001220703</ele>
        <time>2013-01-17T16:03:55.000Z</time>
      </trkpt>
      <trkpt lat="43.57066" lon="5.50046">
        <ele>377.39999389648</ele>
        <time>2013-01-17T16:04:06.000Z</time>
      </trkpt>
      <trkpt lat="43.57109" lon="5.50025">
        <ele>375.20001220703</ele>
        <time>2013-01-17T16:04:15.000Z</time>
      </trkpt>
      <trkpt lat="43.5714" lon="5.50034">
        <ele>374.39999389648</ele>
        <time>2013-01-17T16:04:55.000Z</time>
      </trkpt>
      <trkpt lat="43.57171" lon="5.50089">
        <ele>367.60000610352</ele>
        <time>2013-01-17T16:05:07.000Z</time>
      </trkpt>
      <trkpt lat="43.57208" lon="5.50133">
        <ele>367</ele>
        <time>2013-01-17T16:05:17.000Z</time>
      </trkpt>
      <trkpt lat="43.57244" lon="5.50178">
        <ele>368.39999389648</ele>
        <time>2013-01-17T16:05:27.000Z</time>
      </trkpt>
      <trkpt lat="43.5728" lon="5.50218">
        <ele>367.79998779297</ele>
        <time>2013-01-17T16:05:36.000Z</time>
      </trkpt>
      <trkpt lat="43.57315" lon="5.50262">
        <ele>365.39999389648</ele>
        <time>2013-01-17T16:05:44.000Z</time>
      </trkpt>
      <trkpt lat="43.57353" lon="5.50309">
        <ele>363.60000610352</ele>
        <time>2013-01-17T16:05:53.000Z</time>
      </trkpt>
      <trkpt lat="43.57391" lon="5.50351">
        <ele>362.79998779297</ele>
        <time>2013-01-17T16:06:02.000Z</time>
      </trkpt>
      <trkpt lat="43.57436" lon="5.50369">
        <ele>362.39999389648</ele>
        <time>2013-01-17T16:06:11.000Z</time>
      </trkpt>
      <trkpt lat="43.57476" lon="5.50406">
        <ele>364.39999389648</ele>
        <time>2013-01-17T16:06:21.000Z</time>
      </trkpt>
      <trkpt lat="43.57506" lon="5.50375">
        <ele>363.20001220703</ele>
        <time>2013-01-17T16:06:32.000Z</time>
      </trkpt>
      <trkpt lat="43.57527" lon="5.5032">
        <ele>361</ele>
        <time>2013-01-17T16:06:40.000Z</time>
      </trkpt>
      <trkpt lat="43.57562" lon="5.50268">
        <ele>358.79998779297</ele>
        <time>2013-01-17T16:06:48.000Z</time>
      </trkpt>
      <trkpt lat="43.57603" lon="5.50234">
        <ele>356.79998779297</ele>
        <time>2013-01-17T16:06:55.000Z</time>
      </trkpt>
      <trkpt lat="43.57645" lon="5.50196">
        <ele>354.39999389648</ele>
        <time>2013-01-17T16:07:03.000Z</time>
      </trkpt>
      <trkpt lat="43.57684" lon="5.5015">
        <ele>353</ele>
        <time>2013-01-17T16:07:11.000Z</time>
      </trkpt>
      <trkpt lat="43.57723" lon="5.50115">
        <ele>353.20001220703</ele>
        <time>2013-01-17T16:07:19.000Z</time>
      </trkpt>
      <trkpt lat="43.57762" lon="5.5008">
        <ele>353</ele>
        <time>2013-01-17T16:07:27.000Z</time>
      </trkpt>
      <trkpt lat="43.57801" lon="5.5004">
        <ele>352.79998779297</ele>
        <time>2013-01-17T16:07:35.000Z</time>
      </trkpt>
      <trkpt lat="43.57843" lon="5.5">
        <ele>351.60000610352</ele>
        <time>2013-01-17T16:07:43.000Z</time>
      </trkpt>
      <trkpt lat="43.57849" lon="5.4994">
        <ele>350.60000610352</ele>
        <time>2013-01-17T16:07:51.000Z</time>
      </trkpt>
      <trkpt lat="43.57864" lon="5.49877">
        <ele>349.39999389648</ele>
        <time>2013-01-17T16:07:59.000Z</time>
      </trkpt>
      <trkpt lat="43.57895" lon="5.49827">
        <ele>348.60000610352</ele>
        <time>2013-01-17T16:08:07.000Z</time>
      </trkpt>
      <trkpt lat="43.57931" lon="5.49782">
        <ele>348.20001220703</ele>
        <time>2013-01-17T16:08:16.000Z</time>
      </trkpt>
      <trkpt lat="43.57961" lon="5.49728">
        <ele>348.20001220703</ele>
        <time>2013-01-17T16:08:29.000Z</time>
      </trkpt>
      <trkpt lat="43.57991" lon="5.49677">
        <ele>348.79998779297</ele>
        <time>2013-01-17T16:08:39.000Z</time>
      </trkpt>
      <trkpt lat="43.58027" lon="5.49632">
        <ele>348.20001220703</ele>
        <time>2013-01-17T16:08:48.000Z</time>
      </trkpt>
      <trkpt lat="43.58064" lon="5.49589">
        <ele>346.79998779297</ele>
        <time>2013-01-17T16:08:57.000Z</time>
      </trkpt>
      <trkpt lat="43.58102" lon="5.49544">
        <ele>344.60000610352</ele>
        <time>2013-01-17T16:09:05.000Z</time>
      </trkpt>
      <trkpt lat="43.58137" lon="5.49504">
        <ele>343.20001220703</ele>
        <time>2013-01-17T16:09:12.000Z</time>
      </trkpt>
      <trkpt lat="43.58172" lon="5.49463">
        <ele>343.20001220703</ele>
        <time>2013-01-17T16:09:19.000Z</time>
      </trkpt>
      <trkpt lat="43.58211" lon="5.49419">
        <ele>343.39999389648</ele>
        <time>2013-01-17T16:09:26.000Z</time>
      </trkpt>
      <trkpt lat="43.58248" lon="5.49383">
        <ele>343.39999389648</ele>
        <time>2013-01-17T16:09:33.000Z</time>
      </trkpt>
      <trkpt lat="43.58287" lon="5.49346">
        <ele>343.20001220703</ele>
        <time>2013-01-17T16:09:40.000Z</time>
      </trkpt>
      <trkpt lat="43.58326" lon="5.49311">
        <ele>342.20001220703</ele>
        <time>2013-01-17T16:09:47.000Z</time>
      </trkpt>
      <trkpt lat="43.58364" lon="5.49276">
        <ele>341.20001220703</ele>
        <time>2013-01-17T16:09:54.000Z</time>
      </trkpt>
      <trkpt lat="43.58401" lon="5.49238">
        <ele>341.60000610352</ele>
        <time>2013-01-17T16:10:01.000Z</time>
      </trkpt>
      <trkpt lat="43.5844" lon="5.49192">
        <ele>342</ele>
        <time>2013-01-17T16:10:09.000Z</time>
      </trkpt>
      <trkpt lat="43.58475" lon="5.4915">
        <ele>342.20001220703</ele>
        <time>2013-01-17T16:10:16.000Z</time>
      </trkpt>
      <trkpt lat="43.5851" lon="5.49105">
        <ele>342</ele>
        <time>2013-01-17T16:10:23.000Z</time>
      </trkpt>
      <trkpt lat="43.58543" lon="5.49056">
        <ele>341</ele>
        <time>2013-01-17T16:10:30.000Z</time>
      </trkpt>
      <trkpt lat="43.58576" lon="5.49007">
        <ele>340</ele>
        <time>2013-01-17T16:10:37.000Z</time>
      </trkpt>
      <trkpt lat="43.58608" lon="5.48962">
        <ele>339.20001220703</ele>
        <time>2013-01-17T16:10:44.000Z</time>
      </trkpt>
      <trkpt lat="43.58641" lon="5.48918">
        <ele>338.60000610352</ele>
        <time>2013-01-17T16:10:52.000Z</time>
      </trkpt>
      <trkpt lat="43.58686" lon="5.48907">
        <ele>339.79998779297</ele>
        <time>2013-01-17T16:11:00.000Z</time>
      </trkpt>
      <trkpt lat="43.58724" lon="5.48873">
        <ele>341.20001220703</ele>
        <time>2013-01-17T16:11:08.000Z</time>
      </trkpt>
      <trkpt lat="43.58767" lon="5.48842">
        <ele>342.39999389648</ele>
        <time>2013-01-17T16:11:16.000Z</time>
      </trkpt>
      <trkpt lat="43.58808" lon="5.48815">
        <ele>342.39999389648</ele>
        <time>2013-01-17T16:11:24.000Z</time>
      </trkpt>
      <trkpt lat="43.58851" lon="5.4879">
        <ele>343.20001220703</ele>
        <time>2013-01-17T16:11:33.000Z</time>
      </trkpt>
      <trkpt lat="43.58897" lon="5.48772">
        <ele>345.60000610352</ele>
        <time>2013-01-17T16:11:43.000Z</time>
      </trkpt>
      <trkpt lat="43.58941" lon="5.48762">
        <ele>347.79998779297</ele>
        <time>2013-01-17T16:11:54.000Z</time>
      </trkpt>
      <trkpt lat="43.58984" lon="5.48737">
        <ele>348</ele>
        <time>2013-01-17T16:12:05.000Z</time>
      </trkpt>
      <trkpt lat="43.59025" lon="5.48699">
        <ele>346.39999389648</ele>
        <time>2013-01-17T16:12:14.000Z</time>
      </trkpt>
      <trkpt lat="43.59065" lon="5.48659">
        <ele>344.39999389648</ele>
        <time>2013-01-17T16:12:22.000Z</time>
      </trkpt>
      <trkpt lat="43.591" lon="5.48617">
        <ele>344.39999389648</ele>
        <time>2013-01-17T16:12:30.000Z</time>
      </trkpt>
      <trkpt lat="43.59128" lon="5.48566">
        <ele>345.20001220703</ele>
        <time>2013-01-17T16:12:38.000Z</time>
      </trkpt>
      <trkpt lat="43.59155" lon="5.48515">
        <ele>345.60000610352</ele>
        <time>2013-01-17T16:12:47.000Z</time>
      </trkpt>
      <trkpt lat="43.59196" lon="5.4848">
        <ele>345.60000610352</ele>
        <time>2013-01-17T16:12:58.000Z</time>
      </trkpt>
      <trkpt lat="43.59238" lon="5.48452">
        <ele>345.60000610352</ele>
        <time>2013-01-17T16:13:12.000Z</time>
      </trkpt>
      <trkpt lat="43.5928" lon="5.48421">
        <ele>344.60000610352</ele>
        <time>2013-01-17T16:13:25.000Z</time>
      </trkpt>
      <trkpt lat="43.5932" lon="5.4838">
        <ele>344.20001220703</ele>
        <time>2013-01-17T16:13:37.000Z</time>
      </trkpt>
      <trkpt lat="43.59353" lon="5.48336">
        <ele>344.79998779297</ele>
        <time>2013-01-17T16:13:48.000Z</time>
      </trkpt>
      <trkpt lat="43.59383" lon="5.48284">
        <ele>345.39999389648</ele>
        <time>2013-01-17T16:13:57.000Z</time>
      </trkpt>
      <trkpt lat="43.59415" lon="5.48236">
        <ele>347.20001220703</ele>
        <time>2013-01-17T16:14:05.000Z</time>
      </trkpt>
      <trkpt lat="43.5946" lon="5.48244">
        <ele>349</ele>
        <time>2013-01-17T16:14:14.000Z</time>
      </trkpt>
      <trkpt lat="43.59498" lon="5.48277">
        <ele>350.39999389648</ele>
        <time>2013-01-17T16:14:24.000Z</time>
      </trkpt>
      <trkpt lat="43.59537" lon="5.48314">
        <ele>353.20001220703</ele>
        <time>2013-01-17T16:14:34.000Z</time>
      </trkpt>
      <trkpt lat="43.5957" lon="5.48356">
        <ele>355.20001220703</ele>
        <time>2013-01-17T16:14:44.000Z</time>
      </trkpt>
      <trkpt lat="43.59607" lon="5.48393">
        <ele>356.20001220703</ele>
        <time>2013-01-17T16:14:56.000Z</time>
      </trkpt>
      <trkpt lat="43.59649" lon="5.48428">
        <ele>357.60000610352</ele>
        <time>2013-01-17T16:15:12.000Z</time>
      </trkpt>
      <trkpt lat="43.59693" lon="5.4846">
        <ele>358.20001220703</ele>
        <time>2013-01-17T16:15:26.000Z</time>
      </trkpt>
      <trkpt lat="43.59733" lon="5.4849">
        <ele>358</ele>
        <time>2013-01-17T16:15:42.000Z</time>
      </trkpt>
      <trkpt lat="43.59781" lon="5.48506">
        <ele>358.20001220703</ele>
        <time>2013-01-17T16:16:00.000Z</time>
      </trkpt>
      <trkpt lat="43.59827" lon="5.48505">
        <ele>358.79998779297</ele>
        <time>2013-01-17T16:16:29.000Z</time>
      </trkpt>
      <trkpt lat="43.59873" lon="5.4851">
        <ele>359.20001220703</ele>
        <time>2013-01-17T16:16:43.000Z</time>
      </trkpt>
      <trkpt lat="43.5992" lon="5.48518">
        <ele>360</ele>
        <time>2013-01-17T16:16:55.000Z</time>
      </trkpt>
      <trkpt lat="43.59965" lon="5.48542">
        <ele>361</ele>
        <time>2013-01-17T16:17:08.000Z</time>
      </trkpt>
      <trkpt lat="43.59986" lon="5.48604">
        <ele>362</ele>
        <time>2013-01-17T16:17:24.000Z</time>
      </trkpt>
      <trkpt lat="43.60017" lon="5.48652">
        <ele>363.39999389648</ele>
        <time>2013-01-17T16:17:37.000Z</time>
      </trkpt>
      <trkpt lat="43.60047" lon="5.487">
        <ele>364</ele>
        <time>2013-01-17T16:18:30.000Z</time>
      </trkpt>
      <trkpt lat="43.60075" lon="5.48726">
        <ele>364</ele>
        <time>2013-01-17T16:19:02.000Z</time>
      </trkpt>
      <trkpt lat="43.60074" lon="5.48792">
        <ele>365</ele>
        <time>2013-01-17T16:19:11.000Z</time>
      </trkpt>
      <trkpt lat="43.60039" lon="5.48831">
        <ele>366.39999389648</ele>
        <time>2013-01-17T16:19:19.000Z</time>
      </trkpt>
      <trkpt lat="43.59998" lon="5.48864">
        <ele>367.60000610352</ele>
        <time>2013-01-17T16:19:28.000Z</time>
      </trkpt>
      <trkpt lat="43.59955" lon="5.48855">
        <ele>366.39999389648</ele>
        <time>2013-01-17T16:19:37.000Z</time>
      </trkpt>
      <trkpt lat="43.59907" lon="5.48849">
        <ele>365.20001220703</ele>
        <time>2013-01-17T16:19:49.000Z</time>
      </trkpt>
    </trkseg>
  </trk>
</gpx>